Observation data for Adrian on 07/10/2018      Previous  Date  Next       Current Mesonet Observations  Soil Data  Daily Summary Page  Observations in Plain Language
KAD1 100500Z 15013KT 24/11 A3031 RMK A01 T02350113  RH  046%=      5-min Rain = 0
KAD1 100501Z 15013KT 23/11 A3031 RMK A01 T02340113  RH  046%=      5-min Rain = 0
KAD1 100502Z 15014KT 23/11 A3031 RMK A01 T02340114  RH  047%=      5-min Rain = 0
KAD1 100503Z 15013KT 23/11 A3031 RMK A01 T02330113  RH  047%=      5-min Rain = 0
KAD1 100504Z 15012KT 23/11 A3031 RMK A01 T02330113  RH  047%=      5-min Rain = 0
KAD1 100505Z 15013KT 23/11 A3031 RMK A01 T02330113  RH  047%=      5-min Rain = 0
KAD1 100506Z 15013KT 23/11 A3031 RMK A01 T02330113  RH  047%=      5-min Rain = 0
KAD1 100507Z 15013KT 23/11 A3031 RMK A01 T02320113  RH  047%=      5-min Rain = 0
KAD1 100508Z 15012KT 23/11 A3031 RMK A01 T02310113  RH  047%=      5-min Rain = 0
KAD1 100509Z 15012KT 23/11 A3031 RMK A01 T02300113  RH  048%=      5-min Rain = 0
KAD1 100510Z 15012KT 23/11 A3031 RMK A01 T02300113  RH  048%=      5-min Rain = 0
KAD1 100511Z 15013KT 23/11 A3031 RMK A01 T02290113  RH  048%=      5-min Rain = 0
KAD1 100512Z 15013KT 23/11 A3031 RMK A01 T02290113  RH  048%=      5-min Rain = 0
KAD1 100513Z 15013KT 23/11 A3031 RMK A01 T02280113  RH  048%=      5-min Rain = 0
KAD1 100514Z 15013KT 23/11 A3031 RMK A01 T02280114  RH  048%=      5-min Rain = 0
KAD1 100515Z 15013KT 23/11 A3031 RMK A01 T02280114  RH  049%=      5-min Rain = 0
KAD1 100516Z 15012KT 23/11 A3031 RMK A01 T02270114  RH  049%=      5-min Rain = 0
KAD1 100517Z 15013KT 23/11 A3031 RMK A01 T02260114  RH  049%=      5-min Rain = 0
KAD1 100518Z 15013KT 23/11 A3031 RMK A01 T02250114  RH  049%=      5-min Rain = 0
KAD1 100519Z 15013KT 23/11 A3031 RMK A01 T02250114  RH  049%=      5-min Rain = 0
KAD1 100520Z 15013KT 22/11 A3031 RMK A01 T02240114  RH  049%=      5-min Rain = 0
KAD1 100521Z 15012KT 23/11 A3031 RMK A01 T02250113  RH  049%=      5-min Rain = 0
KAD1 100522Z 15012KT 22/11 A3031 RMK A01 T02240113  RH  049%=      5-min Rain = 0
KAD1 100523Z 15012KT 22/11 A3031 RMK A01 T02240113  RH  049%=      5-min Rain = 0
KAD1 100524Z 15012KT 22/11 A3031 RMK A01 T02240113  RH  049%=      5-min Rain = 0
KAD1 100525Z 14012KT 22/11 A3031 RMK A01 T02240113  RH  049%=      5-min Rain = 0
KAD1 100526Z 15012KT 22/11 A3031 RMK A01 T02240113  RH  049%=      5-min Rain = 0
KAD1 100527Z 14011KT 22/11 A3031 RMK A01 T02240113  RH  049%=      5-min Rain = 0
KAD1 100528Z 14011KT 22/11 A3031 RMK A01 T02240113  RH  049%=      5-min Rain = 0
KAD1 100529Z 14011KT 22/11 A3031 RMK A01 T02230112  RH  049%=      5-min Rain = 0
KAD1 100530Z 14011KT 22/11 A3031 RMK A01 T02230113  RH  050%=      5-min Rain = 0
KAD1 100531Z 14010KT 22/11 A3031 RMK A01 T02230113  RH  050%=      5-min Rain = 0
KAD1 100532Z 14011KT 22/11 A3031 RMK A01 T02220112  RH  050%=      5-min Rain = 0
KAD1 100533Z 14011KT 22/11 A3031 RMK A01 T02210112  RH  050%=      5-min Rain = 0
KAD1 100534Z 14011KT 22/11 A3031 RMK A01 T02210113  RH  050%=      5-min Rain = 0
KAD1 100535Z 14011KT 22/11 A3031 RMK A01 T02210112  RH  050%=      5-min Rain = 0
KAD1 100536Z 14011KT 22/11 A3031 RMK A01 T02210112  RH  050%=      5-min Rain = 0
KAD1 100537Z 14011KT 22/11 A3031 RMK A01 T02210112  RH  050%=      5-min Rain = 0
KAD1 100538Z 14011KT 22/11 A3031 RMK A01 T02210112  RH  050%=      5-min Rain = 0
KAD1 100539Z 14010KT 22/11 A3031 RMK A01 T02210113  RH  050%=      5-min Rain = 0
KAD1 100540Z 14011KT 22/11 A3031 RMK A01 T02210112  RH  050%=      5-min Rain = 0
KAD1 100541Z 14011KT 22/11 A3031 RMK A01 T02200112  RH  050%=      5-min Rain = 0
KAD1 100542Z 14011KT 22/11 A3031 RMK A01 T02200112  RH  050%=      5-min Rain = 0
KAD1 100543Z 14011KT 22/11 A3031 RMK A01 T02200112  RH  050%=      5-min Rain = 0
KAD1 100544Z 14010KT 22/11 A3031 RMK A01 T02200112  RH  050%=      5-min Rain = 0
KAD1 100545Z 15010KT 22/11 A3031 RMK A01 T02200112  RH  050%=      5-min Rain = 0
KAD1 100546Z 15011KT 22/11 A3031 RMK A01 T02190112  RH  051%=      5-min Rain = 0
KAD1 100547Z 15011KT 22/11 A3031 RMK A01 T02190112  RH  051%=      5-min Rain = 0
KAD1 100548Z 15011KT 22/11 A3031 RMK A01 T02190112  RH  051%=      5-min Rain = 0
KAD1 100549Z 15011KT 22/11 A3031 RMK A01 T02190112  RH  051%=      5-min Rain = 0
KAD1 100550Z 15011KT 22/11 A3031 RMK A01 T02180112  RH  051%=      5-min Rain = 0
KAD1 100551Z 15010KT 22/11 A3031 RMK A01 T02180112  RH  051%=      5-min Rain = 0
KAD1 100552Z 15010KT 22/11 A3031 RMK A01 T02170113  RH  051%=      5-min Rain = 0
KAD1 100553Z 15010KT 22/11 A3031 RMK A01 T02160113  RH  052%=      5-min Rain = 0
KAD1 100554Z 15010KT 22/11 A3031 RMK A01 T02150113  RH  052%=      5-min Rain = 0
KAD1 100555Z 15010KT 22/11 A3031 RMK A01 T02150113  RH  052%=      5-min Rain = 0
KAD1 100556Z 15010KT 22/11 A3031 RMK A01 T02150113  RH  052%=      5-min Rain = 0
KAD1 100557Z 15010KT 22/11 A3031 RMK A01 T02150113  RH  052%=      5-min Rain = 0
KAD1 100558Z 15010KT 22/11 A3031 RMK A01 T02150113  RH  052%=      5-min Rain = 0
KAD1 100559Z 15010KT 21/11 A3031 RMK A01 T02140113  RH  052%=      5-min Rain = 0
KAD1 100600Z 15010KT 21/11 A3031 RMK A01 T02130113  RH  053%=      5-min Rain = 0
KAD1 100601Z 15010KT 21/11 A3031 RMK A01 T02130113  RH  053%=      5-min Rain = 0
KAD1 100602Z 15010KT 21/11 A3031 RMK A01 T02120113  RH  053%=      5-min Rain = 0
KAD1 100603Z 15010KT 21/11 A3031 RMK A01 T02120113  RH  053%=      5-min Rain = 0
KAD1 100604Z 15010KT 21/11 A3031 RMK A01 T02110113  RH  053%=      5-min Rain = 0
KAD1 100605Z 15010KT 21/11 A3031 RMK A01 T02110113  RH  054%=      5-min Rain = 0
KAD1 100606Z 15010KT 21/11 A3031 RMK A01 T02100113  RH  054%=      5-min Rain = 0
KAD1 100607Z 15010KT 21/11 A3031 RMK A01 T02100113  RH  054%=      5-min Rain = 0
KAD1 100608Z 15010KT 21/11 A3031 RMK A01 T02090112  RH  054%=      5-min Rain = 0
KAD1 100609Z 15010KT 21/11 A3031 RMK A01 T02100113  RH  054%=      5-min Rain = 0
KAD1 100610Z 15010KT 21/11 A3031 RMK A01 T02100112  RH  054%=      5-min Rain = 0
KAD1 100611Z 15010KT 21/11 A3031 RMK A01 T02100112  RH  054%=      5-min Rain = 0
KAD1 100612Z 15010KT 21/11 A3031 RMK A01 T02100112  RH  054%=      5-min Rain = 0
KAD1 100613Z 15011KT 21/11 A3031 RMK A01 T02100112  RH  054%=      5-min Rain = 0
KAD1 100614Z 15011KT 21/11 A3031 RMK A01 T02100112  RH  053%=      5-min Rain = 0
KAD1 100615Z 15011KT 21/11 A3031 RMK A01 T02100112  RH  053%=      5-min Rain = 0
KAD1 100616Z 15011KT 21/11 A3031 RMK A01 T02100112  RH  053%=      5-min Rain = 0
KAD1 100617Z 15011KT 21/11 A3031 RMK A01 T02100112  RH  053%=      5-min Rain = 0
KAD1 100618Z 15011KT 21/11 A3031 RMK A01 T02100112  RH  053%=      5-min Rain = 0
KAD1 100619Z 15011KT 21/11 A3031 RMK A01 T02100112  RH  053%=      5-min Rain = 0
KAD1 100620Z 15011KT 21/11 A3031 RMK A01 T02100112  RH  053%=      5-min Rain = 0
KAD1 100621Z 15011KT 21/11 A3031 RMK A01 T02110113  RH  054%=      5-min Rain = 0
KAD1 100622Z 15012KT 21/11 A3031 RMK A01 T02110113  RH  053%=      5-min Rain = 0
KAD1 100623Z 15012KT 21/11 A3031 RMK A01 T02110112  RH  053%=      5-min Rain = 0
KAD1 100624Z 15011KT 21/11 A3031 RMK A01 T02110113  RH  053%=      5-min Rain = 0
KAD1 100625Z 15012KT 21/11 A3031 RMK A01 T02110113  RH  053%=      5-min Rain = 0
KAD1 100626Z 15012KT 21/11 A3031 RMK A01 T02110113  RH  053%=      5-min Rain = 0
KAD1 100627Z 15012KT 21/11 A3031 RMK A01 T02110113  RH  054%=      5-min Rain = 0
KAD1 100628Z 15012KT 21/11 A3031 RMK A01 T02110113  RH  054%=      5-min Rain = 0
KAD1 100629Z 15012KT 21/11 A3031 RMK A01 T02100113  RH  054%=      5-min Rain = 0
KAD1 100630Z 15012KT 21/11 A3031 RMK A01 T02100113  RH  054%=      5-min Rain = 0
KAD1 100631Z 15012KT 21/11 A3031 RMK A01 T02100113  RH  054%=      5-min Rain = 0
KAD1 100632Z 15012KT 21/11 A3031 RMK A01 T02100114  RH  054%=      5-min Rain = 0
KAD1 100633Z 15011KT 21/11 A3031 RMK A01 T02100113  RH  054%=      5-min Rain = 0
KAD1 100634Z 15012KT 21/11 A3031 RMK A01 T02090113  RH  054%=      5-min Rain = 0
KAD1 100635Z 15012KT 21/11 A3031 RMK A01 T02090113  RH  054%=      5-min Rain = 0
KAD1 100636Z 15012KT 21/11 A3031 RMK A01 T02090113  RH  054%=      5-min Rain = 0
KAD1 100637Z 16013KT 21/11 A3031 RMK A01 T02090113  RH  054%=      5-min Rain = 0
KAD1 100638Z 16013KT 21/11 A3031 RMK A01 T02090114  RH  055%=      5-min Rain = 0
KAD1 100639Z 17013KT 21/11 A3031 RMK A01 T02080114  RH  055%=      5-min Rain = 0
KAD1 100640Z 17012KT 21/11 A3031 RMK A01 T02080114  RH  055%=      5-min Rain = 0
KAD1 100641Z 17012KT 21/11 A3031 RMK A01 T02070113  RH  055%=      5-min Rain = 0
KAD1 100642Z 16011KT 21/11 A3031 RMK A01 T02060113  RH  055%=      5-min Rain = 0
KAD1 100643Z 16012KT 20/11 A3031 RMK A01 T02040113  RH  056%=      5-min Rain = 0
KAD1 100644Z 16012KT 20/11 A3031 RMK A01 T02040114  RH  056%=      5-min Rain = 0
KAD1 100645Z 17012KT 20/11 A3031 RMK A01 T02040113  RH  056%=      5-min Rain = 0
KAD1 100646Z 17012KT 21/11 A3031 RMK A01 T02050113  RH  055%=      5-min Rain = 0
KAD1 100647Z 17011KT 20/11 A3031 RMK A01 T02040113  RH  056%=      5-min Rain = 0
KAD1 100648Z 17011KT 20/11 A3031 RMK A01 T02040113  RH  056%=      5-min Rain = 0
KAD1 100649Z 16011KT 20/11 A3031 RMK A01 T02030113  RH  056%=      5-min Rain = 0
KAD1 100650Z 16011KT 20/11 A3031 RMK A01 T02030113  RH  056%=      5-min Rain = 0
KAD1 100651Z 17011KT 20/11 A3031 RMK A01 T02020113  RH  056%=      5-min Rain = 0
KAD1 100652Z 17011KT 20/11 A3031 RMK A01 T02020113  RH  056%=      5-min Rain = 0
KAD1 100653Z 17010KT 20/11 A3031 RMK A01 T02020113  RH  056%=      5-min Rain = 0
KAD1 100654Z 17010KT 20/11 A3031 RMK A01 T02010112  RH  057%=      5-min Rain = 0
KAD1 100655Z 17010KT 20/11 A3031 RMK A01 T02010112  RH  057%=      5-min Rain = 0
KAD1 100656Z 17010KT 20/11 A3031 RMK A01 T02000113  RH  057%=      5-min Rain = 0
KAD1 100657Z 17010KT 20/11 A3031 RMK A01 T02000113  RH  057%=      5-min Rain = 0
KAD1 100658Z 17010KT 20/11 A3031 RMK A01 T01990113  RH  058%=      5-min Rain = 0
KAD1 100659Z 16010KT 20/11 A3031 RMK A01 T01980113  RH  058%=      5-min Rain = 0
KAD1 100700Z 17010KT 20/11 A3031 RMK A01 T01970113  RH  058%=      5-min Rain = 0
KAD1 100701Z 17010KT 20/11 A3031 RMK A01 T01970113  RH  058%=      5-min Rain = 0
KAD1 100702Z 17010KT 20/11 A3031 RMK A01 T01970113  RH  058%=      5-min Rain = 0
KAD1 100703Z 17010KT 20/11 A3031 RMK A01 T01970114  RH  059%=      5-min Rain = 0
KAD1 100704Z 17010KT 20/11 A3031 RMK A01 T01960113  RH  059%=      5-min Rain = 0
KAD1 100705Z 17010KT 20/11 A3031 RMK A01 T01970114  RH  059%=      5-min Rain = 0
KAD1 100706Z 17010KT 20/11 A3031 RMK A01 T01960113  RH  059%=      5-min Rain = 0
KAD1 100707Z 17010KT 20/11 A3031 RMK A01 T01960113  RH  059%=      5-min Rain = 0
KAD1 100708Z 17010KT 20/11 A3031 RMK A01 T01960113  RH  059%=      5-min Rain = 0
KAD1 100709Z 17010KT 20/11 A3031 RMK A01 T01960113  RH  059%=      5-min Rain = 0
KAD1 100710Z 17010KT 20/11 A3031 RMK A01 T01960113  RH  059%=      5-min Rain = 0
KAD1 100711Z 17010KT 20/11 A3031 RMK A01 T01960113  RH  058%=      5-min Rain = 0
KAD1 100712Z 17010KT 20/11 A3031 RMK A01 T01970113  RH  058%=      5-min Rain = 0
KAD1 100713Z 17011KT 20/11 A3031 RMK A01 T01960113  RH  058%=      5-min Rain = 0
KAD1 100714Z 17010KT 20/11 A3031 RMK A01 T01970113  RH  058%=      5-min Rain = 0
KAD1 100715Z 17010KT 20/11 A3031 RMK A01 T01970113  RH  058%=      5-min Rain = 0
KAD1 100716Z 17010KT 20/11 A3031 RMK A01 T01970113  RH  058%=      5-min Rain = 0
KAD1 100717Z 17010KT 20/11 A3031 RMK A01 T01970113  RH  058%=      5-min Rain = 0
KAD1 100718Z 17010KT 20/11 A3031 RMK A01 T01980113  RH  058%=      5-min Rain = 0
KAD1 100719Z 17010KT 20/11 A303 RMK A01 T01980113  RH  058%=      5-min Rain = 0
KAD1 100720Z 17010KT 20/11 A303 RMK A01 T01970113  RH  058%=      5-min Rain = 0
KAD1 100721Z 17011KT 20/11 A303 RMK A01 T01980113  RH  058%=      5-min Rain = 0
KAD1 100722Z 17010KT 20/11 A303 RMK A01 T01980114  RH  058%=      5-min Rain = 0
KAD1 100723Z 17010KT 20/11 A303 RMK A01 T01980114  RH  058%=      5-min Rain = 0
KAD1 100724Z 17010KT 20/11 A303 RMK A01 T01980114  RH  058%=      5-min Rain = 0
KAD1 100725Z 17010KT 20/11 A303 RMK A01 T01990114  RH  058%=      5-min Rain = 0
KAD1 100726Z 17010KT 20/11 A303 RMK A01 T01990114  RH  058%=      5-min Rain = 0
KAD1 100727Z 17010KT 20/11 A303 RMK A01 T01990114  RH  058%=      5-min Rain = 0
KAD1 100728Z 17010KT 20/11 A303 RMK A01 T01990114  RH  058%=      5-min Rain = 0
KAD1 100729Z 17010KT 20/11 A303 RMK A01 T01990114  RH  058%=      5-min Rain = 0
KAD1 100730Z 17010KT 20/12 A303 RMK A01 T01990115  RH  058%=      5-min Rain = 0
KAD1 100731Z 17010KT 20/11 A303 RMK A01 T01990114  RH  058%=      5-min Rain = 0
KAD1 100732Z 17010KT 20/11 A303 RMK A01 T01990114  RH  058%=      5-min Rain = 0
KAD1 100733Z 17010KT 20/11 A303 RMK A01 T01990114  RH  058%=      5-min Rain = 0
KAD1 100734Z 17010KT 20/11 A303 RMK A01 T01990114  RH  058%=      5-min Rain = 0
KAD1 100735Z 17010KT 20/11 A303 RMK A01 T01990114  RH  058%=      5-min Rain = 0
KAD1 100736Z 17010KT 20/11 A303 RMK A01 T02000114  RH  058%=      5-min Rain = 0
KAD1 100737Z 17010KT 20/11 A303 RMK A01 T02000114  RH  058%=      5-min Rain = 0
KAD1 100738Z 17010KT 20/11 A303 RMK A01 T02000114  RH  058%=      5-min Rain = 0
KAD1 100739Z 17009KT 20/11 A3031 RMK A01 T02000114  RH  058%=      5-min Rain = 0
KAD1 100740Z 17009KT 20/12 A3031 RMK A01 T02000115  RH  058%=      5-min Rain = 0
KAD1 100741Z 17009KT 20/12 A3031 RMK A01 T02000115  RH  058%=      5-min Rain = 0
KAD1 100742Z 17009KT 20/12 A3031 RMK A01 T02000115  RH  058%=      5-min Rain = 0
KAD1 100743Z 18009KT 20/12 A3031 RMK A01 T02010115  RH  058%=      5-min Rain = 0
KAD1 100744Z 17009KT 20/12 A3031 RMK A01 T02010115  RH  058%=      5-min Rain = 0
KAD1 100745Z 17009KT 20/12 A3031 RMK A01 T02010115  RH  058%=      5-min Rain = 0
KAD1 100746Z 18009KT 20/12 A3031 RMK A01 T02020115  RH  057%=      5-min Rain = 0
KAD1 100747Z 18009KT 20/12 A3031 RMK A01 T02020115  RH  057%=      5-min Rain = 0
KAD1 100748Z 18009KT 20/12 A3031 RMK A01 T02020115  RH  057%=      5-min Rain = 0
KAD1 100749Z 18008KT 20/12 A3031 RMK A01 T02020115  RH  057%=      5-min Rain = 0
KAD1 100750Z 18008KT 20/12 A3031 RMK A01 T02020115  RH  057%=      5-min Rain = 0
KAD1 100751Z 18008KT 20/12 A3031 RMK A01 T02030115  RH  057%=      5-min Rain = 0
KAD1 100752Z 18008KT 20/12 A3031 RMK A01 T02030116  RH  057%=      5-min Rain = 0
KAD1 100753Z 18009KT 20/12 A3031 RMK A01 T02020116  RH  057%=      5-min Rain = 0
KAD1 100754Z 18009KT 20/12 A3031 RMK A01 T02020116  RH  058%=      5-min Rain = 0
KAD1 100755Z 18008KT 20/12 A3031 RMK A01 T02020116  RH  058%=      5-min Rain = 0
KAD1 100756Z 18008KT 20/12 A3031 RMK A01 T02020116  RH  058%=      5-min Rain = 0
KAD1 100757Z 18008KT 20/12 A3031 RMK A01 T02020116  RH  058%=      5-min Rain = 0
KAD1 100758Z 18009KT 20/12 A3031 RMK A01 T02020116  RH  058%=      5-min Rain = 0
KAD1 100759Z 18008KT 20/12 A3031 RMK A01 T02020116  RH  058%=      5-min Rain = 0
KAD1 100800Z 18009KT 20/12 A303 RMK A01 T02020116  RH  058%=      5-min Rain = 0
KAD1 100801Z 18008KT 20/12 A303 RMK A01 T02020116  RH  058%=      5-min Rain = 0
KAD1 100802Z 18009KT 20/12 A3031 RMK A01 T02020116  RH  058%=      5-min Rain = 0
KAD1 100803Z 18009KT 20/12 A3031 RMK A01 T02010115  RH  058%=      5-min Rain = 0
KAD1 100804Z 18009KT 20/12 A3031 RMK A01 T02010116  RH  058%=      5-min Rain = 0
KAD1 100805Z 18009KT 20/12 A3031 RMK A01 T02010115  RH  058%=      5-min Rain = 0
KAD1 100806Z 18009KT 20/12 A3031 RMK A01 T02010115  RH  058%=      5-min Rain = 0
KAD1 100807Z 18009KT 20/12 A3031 RMK A01 T02000115  RH  058%=      5-min Rain = 0
KAD1 100808Z 18008KT 20/11 A3031 RMK A01 T02000114  RH  058%=      5-min Rain = 0
KAD1 100809Z 19008KT 20/12 A3031 RMK A01 T02000115  RH  058%=      5-min Rain = 0
KAD1 100810Z 19008KT 20/12 A3031 RMK A01 T02000116  RH  058%=      5-min Rain = 0
KAD1 100811Z 18008KT 20/12 A3031 RMK A01 T01990115  RH  058%=      5-min Rain = 0
KAD1 100812Z 18008KT 20/12 A3031 RMK A01 T01990115  RH  058%=      5-min Rain = 0
KAD1 100813Z 18008KT 20/12 A3031 RMK A01 T01990115  RH  058%=      5-min Rain = 0
KAD1 100814Z 18008KT 20/12 A3031 RMK A01 T01990115  RH  059%=      5-min Rain = 0
KAD1 100815Z 18008KT 20/12 A3031 RMK A01 T01990116  RH  059%=      5-min Rain = 0
KAD1 100816Z 18008KT 20/12 A3031 RMK A01 T01980116  RH  059%=      5-min Rain = 0
KAD1 100817Z 19008KT 20/12 A3031 RMK A01 T01980115  RH  059%=      5-min Rain = 0
KAD1 100818Z 19008KT 20/12 A3031 RMK A01 T01980116  RH  059%=      5-min Rain = 0
KAD1 100819Z 19009KT 20/12 A3031 RMK A01 T01980116  RH  059%=      5-min Rain = 0
KAD1 100820Z 19008KT 20/12 A3031 RMK A01 T01980115  RH  059%=      5-min Rain = 0
KAD1 100821Z 19009KT 20/12 A3031 RMK A01 T01970115  RH  059%=      5-min Rain = 0
KAD1 100822Z 19008KT 20/12 A3031 RMK A01 T01970115  RH  059%=      5-min Rain = 0
KAD1 100823Z 18009KT 20/12 A3031 RMK A01 T01970115  RH  059%=      5-min Rain = 0
KAD1 100824Z 18008KT 20/12 A3031 RMK A01 T01970115  RH  059%=      5-min Rain = 0
KAD1 100825Z 18008KT 20/12 A3031 RMK A01 T01970115  RH  059%=      5-min Rain = 0
KAD1 100826Z 18009KT 20/12 A3031 RMK A01 T01970115  RH  059%=      5-min Rain = 0
KAD1 100827Z 18009KT 20/11 A303 RMK A01 T01960114  RH  059%=      5-min Rain = 0
KAD1 100828Z 19009KT 20/11 A303 RMK A01 T01960114  RH  059%=      5-min Rain = 0
KAD1 100829Z 19008KT 20/11 A303 RMK A01 T01960114  RH  059%=      5-min Rain = 0
KAD1 100830Z 20007KT 20/11 A303 RMK A01 T01960114  RH  059%=      5-min Rain = 0
KAD1 100831Z 19007KT 20/11 A303 RMK A01 T01950114  RH  059%=      5-min Rain = 0
KAD1 100832Z 19007KT 19/11 A303 RMK A01 T01940114  RH  060%=      5-min Rain = 0
KAD1 100833Z 19007KT 19/11 A3031 RMK A01 T01930114  RH  060%=      5-min Rain = 0
KAD1 100834Z 19008KT 19/11 A3031 RMK A01 T01930114  RH  060%=      5-min Rain = 0
KAD1 100835Z 19008KT 19/11 A3031 RMK A01 T01920114  RH  060%=      5-min Rain = 0
KAD1 100836Z 19008KT 19/11 A3031 RMK A01 T01910114  RH  061%=      5-min Rain = 0
KAD1 100837Z 19008KT 19/11 A3031 RMK A01 T01910113  RH  061%=      5-min Rain = 0
KAD1 100838Z 19008KT 19/11 A3031 RMK A01 T01910113  RH  061%=      5-min Rain = 0
KAD1 100839Z 19007KT 19/11 A3031 RMK A01 T01910113  RH  061%=      5-min Rain = 0
KAD1 100840Z 19006KT 19/11 A3031 RMK A01 T01900113  RH  061%=      5-min Rain = 0
KAD1 100841Z 19008KT 19/11 A303 RMK A01 T01890113  RH  061%=      5-min Rain = 0
KAD1 100842Z 19008KT 19/11 A303 RMK A01 T01890113  RH  061%=      5-min Rain = 0
KAD1 100843Z 19008KT 19/11 A303 RMK A01 T01880113  RH  062%=      5-min Rain = 0
KAD1 100844Z 19008KT 19/11 A303 RMK A01 T01880112  RH  062%=      5-min Rain = 0
KAD1 100845Z 19008KT 19/11 A303 RMK A01 T01870112  RH  062%=      5-min Rain = 0
KAD1 100846Z 19009KT 19/11 A303 RMK A01 T01870112  RH  062%=      5-min Rain = 0
KAD1 100847Z 19008KT 19/11 A303 RMK A01 T01870113  RH  062%=      5-min Rain = 0
KAD1 100848Z 19008KT 19/11 A303 RMK A01 T01860113  RH  062%=      5-min Rain = 0
KAD1 100849Z 19009KT 19/11 A303 RMK A01 T01860113  RH  062%=      5-min Rain = 0
KAD1 100850Z 19009KT 19/11 A3031 RMK A01 T01860113  RH  063%=      5-min Rain = 0
KAD1 100851Z 19008KT 19/11 A3031 RMK A01 T01850113  RH  063%=      5-min Rain = 0
KAD1 100852Z 20009KT 19/11 A3031 RMK A01 T01850114  RH  063%=      5-min Rain = 0
KAD1 100853Z 20009KT 19/11 A3031 RMK A01 T01850114  RH  063%=      5-min Rain = 0
KAD1 100854Z 19009KT 19/11 A3031 RMK A01 T01850114  RH  064%=      5-min Rain = 0
KAD1 100855Z 19010KT 19/12 A3031 RMK A01 T01850115  RH  064%=      5-min Rain = 0
KAD1 100856Z 19009KT 19/12 A3031 RMK A01 T01850115  RH  064%=      5-min Rain = 0
KAD1 100857Z 19009KT 19/12 A3031 RMK A01 T01850115  RH  064%=      5-min Rain = 0
KAD1 100858Z 19009KT 18/12 A3031 RMK A01 T01840115  RH  064%=      5-min Rain = 0
KAD1 100859Z 19009KT 19/12 A3031 RMK A01 T01850116  RH  064%=      5-min Rain = 0
KAD1 100900Z 19009KT 19/12 A3031 RMK A01 T01850116  RH  064%=      5-min Rain = 0
KAD1 100901Z 20009KT 19/12 A3031 RMK A01 T01850117  RH  065%=      5-min Rain = 0
KAD1 100902Z 20009KT 19/12 A3031 RMK A01 T01850117  RH  065%=      5-min Rain = 0
KAD1 100903Z 20008KT 19/12 A3031 RMK A01 T01850118  RH  065%=      5-min Rain = 0
KAD1 100904Z 20008KT 19/12 A3031 RMK A01 T01850118  RH  065%=      5-min Rain = 0
KAD1 100905Z 20008KT 19/12 A3031 RMK A01 T01850118  RH  065%=      5-min Rain = 0
KAD1 100906Z 20008KT 19/12 A3031 RMK A01 T01850118  RH  065%=      5-min Rain = 0
KAD1 100907Z 20008KT 18/12 A3031 RMK A01 T01840118  RH  065%=      5-min Rain = 0
KAD1 100908Z 20008KT 18/12 A3031 RMK A01 T01830118  RH  066%=      5-min Rain = 0
KAD1 100909Z 20009KT 18/12 A3031 RMK A01 T01820118  RH  066%=      5-min Rain = 0
KAD1 100910Z 20009KT 18/12 A3031 RMK A01 T01820118  RH  066%=      5-min Rain = 0
KAD1 100911Z 20009KT 18/12 A303 RMK A01 T01810119  RH  067%=      5-min Rain = 0
KAD1 100912Z 20009KT 18/12 A303 RMK A01 T01810119  RH  067%=      5-min Rain = 0
KAD1 100913Z 21009KT 18/12 A303 RMK A01 T01820120  RH  067%=      5-min Rain = 0
KAD1 100914Z 21009KT 18/12 A303 RMK A01 T01820120  RH  067%=      5-min Rain = 0
KAD1 100915Z 21009KT 18/12 A303 RMK A01 T01820121  RH  067%=      5-min Rain = 0
KAD1 100916Z 21009KT 18/12 A303 RMK A01 T01830121  RH  067%=      5-min Rain = 0
KAD1 100917Z 21009KT 18/12 A303 RMK A01 T01840122  RH  067%=      5-min Rain = 0
KAD1 100918Z 21009KT 18/12 A303 RMK A01 T01840122  RH  067%=      5-min Rain = 0
KAD1 100919Z 21009KT 19/12 A303 RMK A01 T01850123  RH  067%=      5-min Rain = 0
KAD1 100920Z 21009KT 19/12 A303 RMK A01 T01850123  RH  067%=      5-min Rain = 0
KAD1 100921Z 22009KT 19/12 A303 RMK A01 T01860123  RH  067%=      5-min Rain = 0
KAD1 100922Z 22009KT 19/12 A303 RMK A01 T01860124  RH  067%=      5-min Rain = 0
KAD1 100923Z 22009KT 19/12 A303 RMK A01 T01860124  RH  067%=      5-min Rain = 0
KAD1 100924Z 22009KT 19/12 A303 RMK A01 T01870124  RH  067%=      5-min Rain = 0
KAD1 100925Z 22008KT 19/12 A303 RMK A01 T01870124  RH  067%=      5-min Rain = 0
KAD1 100926Z 22008KT 19/12 A303 RMK A01 T01870124  RH  067%=      5-min Rain = 0
KAD1 100927Z 23007KT 19/13 A303 RMK A01 T01880125  RH  067%=      5-min Rain = 0
KAD1 100928Z 23007KT 19/13 A303 RMK A01 T01880126  RH  067%=      5-min Rain = 0
KAD1 100929Z 22007KT 19/13 A303 RMK A01 T01880126  RH  067%=      5-min Rain = 0
KAD1 100930Z 22007KT 19/13 A303 RMK A01 T01880127  RH  068%=      5-min Rain = 0
KAD1 100931Z 22007KT 19/13 A303 RMK A01 T01870126  RH  068%=      5-min Rain = 0
KAD1 100932Z 22007KT 19/13 A303 RMK A01 T01870127  RH  068%=      5-min Rain = 0
KAD1 100933Z 22007KT 19/13 A303 RMK A01 T01870127  RH  068%=      5-min Rain = 0
KAD1 100934Z 22007KT 19/13 A303 RMK A01 T01860127  RH  068%=      5-min Rain = 0
KAD1 100935Z 22007KT 19/13 A303 RMK A01 T01860127  RH  068%=      5-min Rain = 0
KAD1 100936Z 22007KT 19/13 A303 RMK A01 T01860127  RH  069%=      5-min Rain = 0
KAD1 100937Z 23007KT 19/13 A303 RMK A01 T01850127  RH  069%=      5-min Rain = 0
KAD1 100938Z 23008KT 19/13 A303 RMK A01 T01850127  RH  069%=      5-min Rain = 0
KAD1 100939Z 23008KT 19/13 A303 RMK A01 T01850127  RH  069%=      5-min Rain = 0
KAD1 100940Z 23008KT 18/13 A303 RMK A01 T01840128  RH  069%=      5-min Rain = 0
KAD1 100941Z 23008KT 18/13 A303 RMK A01 T01840128  RH  070%=      5-min Rain = 0
KAD1 100942Z 24007KT 18/13 A303 RMK A01 T01840128  RH  070%=      5-min Rain = 0
KAD1 100943Z 23007KT 19/13 A303 RMK A01 T01850129  RH  070%=      5-min Rain = 0
KAD1 100944Z 23007KT 19/13 A303 RMK A01 T01850130  RH  070%=      5-min Rain = 0
KAD1 100945Z 24007KT 19/13 A303 RMK A01 T01850130  RH  070%=      5-min Rain = 0
KAD1 100946Z 24007KT 19/13 A303 RMK A01 T01850130  RH  070%=      5-min Rain = 0
KAD1 100947Z 24007KT 19/13 A303 RMK A01 T01850131  RH  071%=      5-min Rain = 0
KAD1 100948Z 23006KT 19/13 A303 RMK A01 T01850131  RH  071%=      5-min Rain = 0
KAD1 100949Z 23006KT 19/13 A303 RMK A01 T01850131  RH  071%=      5-min Rain = 0
KAD1 100950Z 23006KT 19/13 A303 RMK A01 T01860132  RH  071%=      5-min Rain = 0
KAD1 100951Z 23006KT 19/13 A303 RMK A01 T01860133  RH  071%=      5-min Rain = 0
KAD1 100952Z 24006KT 19/13 A303 RMK A01 T01870133  RH  071%=      5-min Rain = 0
KAD1 100953Z 24006KT 19/13 A303 RMK A01 T01890134  RH  070%=      5-min Rain = 0
KAD1 100954Z 24006KT 19/13 A303 RMK A01 T01900134  RH  070%=      5-min Rain = 0
KAD1 100955Z 24006KT 19/14 A303 RMK A01 T01920135  RH  070%=      5-min Rain = 0
KAD1 100956Z 24006KT 19/14 A303 RMK A01 T01920136  RH  070%=      5-min Rain = 0
KAD1 100957Z 24006KT 19/14 A303 RMK A01 T01930136  RH  069%=      5-min Rain = 0
KAD1 100958Z 24006KT 19/14 A303 RMK A01 T01930136  RH  069%=      5-min Rain = 0
KAD1 100959Z 24006KT 19/14 A303 RMK A01 T01930136  RH  069%=      5-min Rain = 0
KAD1 101000Z 24006KT 19/14 A303 RMK A01 T01930136  RH  069%=      5-min Rain = 0
KAD1 101001Z 24006KT 19/14 A303 RMK A01 T01930136  RH  070%=      5-min Rain = 0
KAD1 101002Z 24006KT 19/14 A303 RMK A01 T01930137  RH  070%=      5-min Rain = 0
KAD1 101003Z 24006KT 19/14 A303 RMK A01 T01930137  RH  070%=      5-min Rain = 0
KAD1 101004Z 24006KT 19/14 A303 RMK A01 T01930137  RH  070%=      5-min Rain = 0
KAD1 101005Z 24006KT 19/14 A303 RMK A01 T01940138  RH  070%=      5-min Rain = 0
KAD1 101006Z 24006KT 19/14 A303 RMK A01 T01940138  RH  070%=      5-min Rain = 0
KAD1 101007Z 24005KT 19/14 A303 RMK A01 T01940138  RH  070%=      5-min Rain = 0
KAD1 101008Z 25005KT 20/14 A303 RMK A01 T01950139  RH  070%=      5-min Rain = 0
KAD1 101009Z 25005KT 20/14 A3031 RMK A01 T01950139  RH  070%=      5-min Rain = 0
KAD1 101010Z 24006KT 20/14 A3031 RMK A01 T01950139  RH  070%=      5-min Rain = 0
KAD1 101011Z 24006KT 20/14 A3031 RMK A01 T01960140  RH  070%=      5-min Rain = 0
KAD1 101012Z 24006KT 20/14 A3031 RMK A01 T01960140  RH  070%=      5-min Rain = 0
KAD1 101013Z 24006KT 20/14 A3031 RMK A01 T01970140  RH  070%=      5-min Rain = 0
KAD1 101014Z 24006KT 20/14 A3031 RMK A01 T01970140  RH  070%=      5-min Rain = 0
KAD1 101015Z 24006KT 20/14 A303 RMK A01 T01980141  RH  070%=      5-min Rain = 0
KAD1 101016Z 25005KT 20/14 A303 RMK A01 T01980141  RH  069%=      5-min Rain = 0
KAD1 101017Z 25006KT 20/14 A303 RMK A01 T01990141  RH  069%=      5-min Rain = 0
KAD1 101018Z 24006KT 20/14 A303 RMK A01 T01980141  RH  069%=      5-min Rain = 0
KAD1 101019Z 25006KT 20/14 A303 RMK A01 T01990141  RH  069%=      5-min Rain = 0
KAD1 101020Z 24006KT 20/14 A303 RMK A01 T01990141  RH  069%=      5-min Rain = 0
KAD1 101021Z 24006KT 20/14 A303 RMK A01 T01980141  RH  069%=      5-min Rain = 0
KAD1 101022Z 24006KT 20/14 A303 RMK A01 T01980141  RH  070%=      5-min Rain = 0
KAD1 101023Z 24006KT 20/14 A303 RMK A01 T01970141  RH  070%=      5-min Rain = 0
KAD1 101024Z 24006KT 20/14 A303 RMK A01 T01970141  RH  070%=      5-min Rain = 0
KAD1 101025Z 24006KT 20/14 A303 RMK A01 T01970141  RH  070%=      5-min Rain = 0
KAD1 101026Z 24006KT 20/14 A303 RMK A01 T01960141  RH  070%=      5-min Rain = 0
KAD1 101027Z 24006KT 20/14 A303 RMK A01 T01970142  RH  070%=      5-min Rain = 0
KAD1 101028Z 24007KT 20/14 A303 RMK A01 T01980142  RH  070%=      5-min Rain = 0
KAD1 101029Z 24007KT 20/14 A303 RMK A01 T01980142  RH  070%=      5-min Rain = 0
KAD1 101030Z 24007KT 20/14 A303 RMK A01 T01980142  RH  070%=      5-min Rain = 0
KAD1 101031Z 24007KT 20/14 A303 RMK A01 T01980142  RH  070%=      5-min Rain = 0
KAD1 101032Z 24007KT 20/14 A303 RMK A01 T01980143  RH  070%=      5-min Rain = 0
KAD1 101033Z 24007KT 20/14 A303 RMK A01 T01980143  RH  070%=      5-min Rain = 0
KAD1 101034Z 24007KT 20/14 A303 RMK A01 T01980142  RH  070%=      5-min Rain = 0
KAD1 101035Z 24006KT 20/14 A3031 RMK A01 T01980143  RH  070%=      5-min Rain = 0
KAD1 101036Z 23006KT 20/14 A3031 RMK A01 T01960142  RH  071%=      5-min Rain = 0
KAD1 101037Z 23006KT 20/14 A3031 RMK A01 T01950142  RH  071%=      5-min Rain = 0
KAD1 101038Z 23006KT 19/14 A3031 RMK A01 T01940142  RH  072%=      5-min Rain = 0
KAD1 101039Z 23007KT 19/14 A3031 RMK A01 T01940143  RH  072%=      5-min Rain = 0
KAD1 101040Z 23007KT 19/14 A3031 RMK A01 T01940142  RH  072%=      5-min Rain = 0
KAD1 101041Z 23007KT 19/14 A3031 RMK A01 T01940142  RH  072%=      5-min Rain = 0
KAD1 101042Z 23007KT 19/14 A3031 RMK A01 T01940143  RH  072%=      5-min Rain = 0
KAD1 101043Z 23007KT 19/14 A3031 RMK A01 T01940143  RH  072%=      5-min Rain = 0
KAD1 101044Z 23007KT 19/14 A3031 RMK A01 T01940144  RH  073%=      5-min Rain = 0
KAD1 101045Z 23006KT 19/14 A3031 RMK A01 T01940144  RH  073%=      5-min Rain = 0
KAD1 101046Z 23007KT 19/14 A3031 RMK A01 T01940144  RH  073%=      5-min Rain = 0
KAD1 101047Z 23006KT 19/15 A3031 RMK A01 T01940145  RH  073%=      5-min Rain = 0
KAD1 101048Z 23006KT 19/15 A3031 RMK A01 T01940145  RH  073%=      5-min Rain = 0
KAD1 101049Z 23006KT 19/15 A3031 RMK A01 T01940145  RH  073%=      5-min Rain = 0
KAD1 101050Z 23006KT 19/15 A3031 RMK A01 T01930146  RH  074%=      5-min Rain = 0
KAD1 101051Z 23006KT 19/15 A3031 RMK A01 T01930146  RH  074%=      5-min Rain = 0
KAD1 101052Z 23006KT 19/15 A3031 RMK A01 T01930146  RH  074%=      5-min Rain = 0
KAD1 101053Z 23006KT 19/15 A3031 RMK A01 T01930146  RH  074%=      5-min Rain = 0
KAD1 101054Z 23006KT 19/15 A3031 RMK A01 T01930146  RH  074%=      5-min Rain = 0
KAD1 101055Z 23006KT 19/15 A3031 RMK A01 T01930146  RH  074%=      5-min Rain = 0
KAD1 101056Z 22006KT 19/15 A3031 RMK A01 T01930147  RH  074%=      5-min Rain = 0
KAD1 101057Z 22005KT 19/15 A3031 RMK A01 T01940147  RH  074%=      5-min Rain = 0
KAD1 101058Z 22006KT 19/15 A3031 RMK A01 T01930148  RH  075%=      5-min Rain = 0
KAD1 101059Z 23006KT 19/15 A3031 RMK A01 T01930148  RH  075%=      5-min Rain = 0
KAD1 101100Z 23006KT 19/15 A3031 RMK A01 T01930148  RH  075%=      5-min Rain = 0
KAD1 101101Z 23007KT 19/15 A3031 RMK A01 T01930148  RH  075%=      5-min Rain = 0
KAD1 101102Z 22007KT 19/15 A3031 RMK A01 T01930148  RH  075%=      5-min Rain = 0
KAD1 101103Z 22007KT 19/15 A3031 RMK A01 T01940148  RH  075%=      5-min Rain = 0
KAD1 101104Z 22007KT 19/15 A3031 RMK A01 T01940148  RH  075%=      5-min Rain = 0
KAD1 101105Z 22007KT 19/15 A3031 RMK A01 T01940148  RH  075%=      5-min Rain = 0
KAD1 101106Z 22006KT 19/15 A3031 RMK A01 T01940148  RH  075%=      5-min Rain = 0
KAD1 101107Z 22006KT 19/15 A3031 RMK A01 T01940148  RH  075%=      5-min Rain = 0
KAD1 101108Z 22006KT 19/15 A3031 RMK A01 T01940148  RH  075%=      5-min Rain = 0
KAD1 101109Z 21006KT 19/15 A3031 RMK A01 T01920147  RH  075%=      5-min Rain = 0
KAD1 101110Z 22006KT 19/15 A3031 RMK A01 T01910146  RH  075%=      5-min Rain = 0
KAD1 101111Z 22006KT 19/15 A3031 RMK A01 T01900146  RH  075%=      5-min Rain = 0
KAD1 101112Z 22006KT 19/15 A3031 RMK A01 T01890146  RH  076%=      5-min Rain = 0
KAD1 101113Z 21007KT 19/15 A3031 RMK A01 T01880145  RH  076%=      5-min Rain = 0
KAD1 101114Z 21007KT 19/15 A3031 RMK A01 T01870146  RH  077%=      5-min Rain = 0
KAD1 101115Z 21007KT 19/15 A3031 RMK A01 T01860146  RH  077%=      5-min Rain = 0
KAD1 101116Z 21007KT 19/15 A3031 RMK A01 T01860146  RH  078%=      5-min Rain = 0
KAD1 101117Z 22007KT 19/15 A3031 RMK A01 T01860147  RH  078%=      5-min Rain = 0
KAD1 101118Z 22007KT 19/15 A3031 RMK A01 T01860147  RH  078%=      5-min Rain = 0
KAD1 101119Z 22007KT 19/15 A3031 RMK A01 T01860148  RH  078%=      5-min Rain = 0
KAD1 101120Z 22007KT 19/15 A3031 RMK A01 T01870148  RH  078%=      5-min Rain = 0
KAD1 101121Z 21007KT 19/15 A3031 RMK A01 T01870148  RH  078%=      5-min Rain = 0
KAD1 101122Z 21006KT 19/15 A3031 RMK A01 T01870148  RH  078%=      5-min Rain = 0
KAD1 101123Z 21007KT 19/15 A3031 RMK A01 T01870148  RH  078%=      5-min Rain = 0
KAD1 101124Z 21007KT 19/15 A3031 RMK A01 T01860148  RH  078%=      5-min Rain = 0
KAD1 101125Z 21007KT 19/15 A3031 RMK A01 T01850147  RH  078%=      5-min Rain = 0
KAD1 101126Z 21007KT 19/15 A3031 RMK A01 T01850147  RH  079%=      5-min Rain = 0
KAD1 101127Z 21006KT 18/15 A3031 RMK A01 T01840147  RH  079%=      5-min Rain = 0
KAD1 101128Z 21006KT 18/15 A3031 RMK A01 T01830146  RH  079%=      5-min Rain = 0
KAD1 101129Z 21007KT 18/15 A3031 RMK A01 T01820146  RH  079%=      5-min Rain = 0
KAD1 101130Z 21006KT 18/15 A3031 RMK A01 T01810146  RH  080%=      5-min Rain = 0
KAD1 101131Z 21006KT 18/15 A3031 RMK A01 T01810146  RH  080%=      5-min Rain = 0
KAD1 101132Z 21006KT 18/15 A3031 RMK A01 T01800145  RH  080%=      5-min Rain = 0
KAD1 101133Z 21007KT 18/15 A3031 RMK A01 T01790145  RH  080%=      5-min Rain = 0
KAD1 101134Z 21007KT 18/14 A3031 RMK A01 T01790144  RH  080%=      5-min Rain = 0
KAD1 101135Z 20006KT 18/14 A3031 RMK A01 T01790144  RH  080%=      5-min Rain = 0
KAD1 101136Z 20006KT 18/14 A3031 RMK A01 T01780144  RH  080%=      5-min Rain = 0
KAD1 101137Z 20006KT 18/14 A3031 RMK A01 T01780144  RH  080%=      5-min Rain = 0
KAD1 101138Z 19006KT 18/14 A3032 RMK A01 T01770143  RH  081%=      5-min Rain = 0
KAD1 101139Z 20007KT 18/14 A3032 RMK A01 T01770143  RH  081%=      5-min Rain = 0
KAD1 101140Z 19008KT 18/14 A3032 RMK A01 T01760142  RH  080%=      5-min Rain = 0
KAD1 101141Z 19008KT 18/14 A3032 RMK A01 T01760141  RH  080%=      5-min Rain = 0
KAD1 101142Z 19009KT 18/14 A3032 RMK A01 T01750141  RH  080%=      5-min Rain = 0
KAD1 101143Z 19009KT 18/14 A3032 RMK A01 T01750141  RH  080%=      5-min Rain = 0
KAD1 101144Z 20009KT 18/14 A3032 RMK A01 T01760141  RH  080%=      5-min Rain = 0
KAD1 101145Z 20009KT 18/14 A3032 RMK A01 T01760141  RH  080%=      5-min Rain = 0
KAD1 101146Z 19009KT 18/14 A3032 RMK A01 T01760141  RH  080%=      5-min Rain = 0
KAD1 101147Z 20009KT 18/14 A3032 RMK A01 T01760141  RH  080%=      5-min Rain = 0
KAD1 101148Z 20009KT 18/14 A3032 RMK A01 T01750141  RH  080%=      5-min Rain = 0
KAD1 101149Z 20009KT 18/14 A3032 RMK A01 T01750141  RH  080%=      5-min Rain = 0
KAD1 101150Z 20009KT 18/14 A3032 RMK A01 T01750142  RH  081%=      5-min Rain = 0
KAD1 101151Z 20009KT 18/14 A3032 RMK A01 T01750142  RH  081%=      5-min Rain = 0
KAD1 101152Z 20008KT 18/14 A3032 RMK A01 T01750142  RH  081%=      5-min Rain = 0
KAD1 101153Z 20008KT 18/14 A3032 RMK A01 T01750142  RH  081%=      5-min Rain = 0
KAD1 101154Z 20008KT 18/14 A3032 RMK A01 T01750143  RH  081%=      5-min Rain = 0
KAD1 101155Z 20007KT 18/14 A3032 RMK A01 T01750143  RH  081%=      5-min Rain = 0
KAD1 101156Z 20007KT 18/14 A3032 RMK A01 T01750143  RH  081%=      5-min Rain = 0
KAD1 101157Z 19007KT 18/14 A3032 RMK A01 T01750143  RH  081%=      5-min Rain = 0
KAD1 101158Z 19007KT 18/14 A3032 RMK A01 T01750143  RH  081%=      5-min Rain = 0
KAD1 101159Z 20007KT 18/14 A3032 RMK A01 T01750143  RH  081%=      5-min Rain = 0
KAD1 101200Z 20007KT 17/14 A3032 RMK A01 T01740142  RH  081%=      5-min Rain = 0
KAD1 101201Z 20007KT 17/14 A3032 RMK A01 T01740142  RH  081%=      5-min Rain = 0
KAD1 101202Z 21006KT 18/14 A3032 RMK A01 T01750143  RH  082%=      5-min Rain = 0
KAD1 101203Z 21007KT 17/14 A3032 RMK A01 T01740143  RH  082%=      5-min Rain = 0
KAD1 101204Z 21006KT 17/14 A3032 RMK A01 T01730143  RH  082%=      5-min Rain = 0
KAD1 101205Z 21007KT 17/14 A3032 RMK A01 T01730143  RH  082%=      5-min Rain = 0
KAD1 101206Z 21007KT 17/14 A3032 RMK A01 T01730144  RH  083%=      5-min Rain = 0
KAD1 101207Z 21007KT 18/15 A3032 RMK A01 T01750145  RH  083%=      5-min Rain = 0
KAD1 101208Z 21007KT 18/15 A3032 RMK A01 T01760146  RH  082%=      5-min Rain = 0
KAD1 101209Z 21008KT 18/15 A3032 RMK A01 T01780147  RH  082%=      5-min Rain = 0
KAD1 101210Z 21008KT 18/15 A3032 RMK A01 T01800147  RH  081%=      5-min Rain = 0
KAD1 101211Z 22008KT 18/15 A3032 RMK A01 T01810148  RH  081%=      5-min Rain = 0
KAD1 101212Z 22008KT 18/15 A3032 RMK A01 T01830148  RH  080%=      5-min Rain = 0
KAD1 101213Z 22008KT 18/15 A3032 RMK A01 T01840149  RH  080%=      5-min Rain = 0
KAD1 101214Z 22008KT 19/15 A3032 RMK A01 T01850149  RH  079%=      5-min Rain = 0
KAD1 101215Z 22008KT 19/15 A3032 RMK A01 T01860149  RH  079%=      5-min Rain = 0
KAD1 101216Z 22008KT 19/15 A3032 RMK A01 T01870149  RH  079%=      5-min Rain = 0
KAD1 101217Z 22007KT 19/15 A3032 RMK A01 T01870149  RH  078%=      5-min Rain = 0
KAD1 101218Z 22007KT 19/15 A3032 RMK A01 T01880149  RH  078%=      5-min Rain = 0
KAD1 101219Z 22007KT 19/15 A3032 RMK A01 T01880149  RH  078%=      5-min Rain = 0
KAD1 101220Z 22007KT 19/15 A3032 RMK A01 T01890149  RH  078%=      5-min Rain = 0
KAD1 101221Z 22007KT 19/15 A3032 RMK A01 T01890149  RH  077%=      5-min Rain = 0
KAD1 101222Z 22007KT 19/15 A3032 RMK A01 T01900149  RH  077%=      5-min Rain = 0
KAD1 101223Z 22006KT 19/15 A3032 RMK A01 T01900149  RH  077%=      5-min Rain = 0
KAD1 101224Z 22006KT 19/15 A3032 RMK A01 T01900149  RH  077%=      5-min Rain = 0
KAD1 101225Z 22007KT 19/15 A3032 RMK A01 T01900149  RH  077%=      5-min Rain = 0
KAD1 101226Z 22007KT 19/15 A3032 RMK A01 T01900149  RH  077%=      5-min Rain = 0
KAD1 101227Z 22006KT 19/15 A3032 RMK A01 T01900149  RH  077%=      5-min Rain = 0
KAD1 101228Z 22006KT 19/15 A3032 RMK A01 T01900148  RH  077%=      5-min Rain = 0
KAD1 101229Z 22006KT 19/15 A3032 RMK A01 T01910149  RH  076%=      5-min Rain = 0
KAD1 101230Z 22006KT 19/15 A3032 RMK A01 T01910149  RH  076%=      5-min Rain = 0
KAD1 101231Z 22005KT 19/15 A3032 RMK A01 T01920149  RH  076%=      5-min Rain = 0
KAD1 101232Z 22006KT 19/15 A3032 RMK A01 T01920149  RH  076%=      5-min Rain = 0
KAD1 101233Z 22005KT 19/15 A3032 RMK A01 T01930149  RH  076%=      5-min Rain = 0
KAD1 101234Z 21006KT 19/15 A3032 RMK A01 T01930150  RH  076%=      5-min Rain = 0
KAD1 101235Z 21006KT 19/15 A3032 RMK A01 T01930150  RH  076%=      5-min Rain = 0
KAD1 101236Z 20007KT 19/15 A3032 RMK A01 T01940150  RH  075%=      5-min Rain = 0
KAD1 101237Z 21006KT 19/15 A3032 RMK A01 T01940149  RH  075%=      5-min Rain = 0
KAD1 101238Z 21006KT 20/15 A3032 RMK A01 T01950150  RH  075%=      5-min Rain = 0
KAD1 101239Z 21006KT 20/15 A3033 RMK A01 T01960150  RH  075%=      5-min Rain = 0
KAD1 101240Z 22005KT 20/15 A3033 RMK A01 T01960150  RH  075%=      5-min Rain = 0
KAD1 101241Z 22005KT 20/15 A3033 RMK A01 T01970151  RH  074%=      5-min Rain = 0
KAD1 101242Z 22006KT 20/15 A3033 RMK A01 T01980151  RH  074%=      5-min Rain = 0
KAD1 101243Z 23006KT 20/15 A3033 RMK A01 T01990151  RH  074%=      5-min Rain = 0
KAD1 101244Z 23006KT 20/15 A3033 RMK A01 T02000151  RH  073%=      5-min Rain = 0
KAD1 101245Z 22005KT 20/15 A3033 RMK A01 T02010152  RH  073%=      5-min Rain = 0
KAD1 101246Z 22005KT 20/15 A3033 RMK A01 T02030152  RH  073%=      5-min Rain = 0
KAD1 101247Z 22005KT 20/15 A3033 RMK A01 T02040153  RH  072%=      5-min Rain = 0
KAD1 101248Z 22006KT 21/15 A3033 RMK A01 T02060153  RH  072%=      5-min Rain = 0
KAD1 101249Z 22006KT 21/15 A3033 RMK A01 T02070153  RH  071%=      5-min Rain = 0
KAD1 101250Z 22006KT 21/15 A3033 RMK A01 T02090153  RH  070%=      5-min Rain = 0
KAD1 101251Z 22007KT 21/15 A3033 RMK A01 T02110153  RH  070%=      5-min Rain = 0
KAD1 101252Z 22007KT 21/15 A3033 RMK A01 T02120153  RH  069%=      5-min Rain = 0
KAD1 101253Z 22006KT 21/15 A3033 RMK A01 T02140153  RH  068%=      5-min Rain = 0
KAD1 101254Z 22006KT 22/15 A3033 RMK A01 T02150153  RH  068%=      5-min Rain = 0
KAD1 101255Z 22006KT 22/15 A3033 RMK A01 T02160153  RH  067%=      5-min Rain = 0
KAD1 101256Z 22006KT 22/15 A3033 RMK A01 T02170153  RH  067%=      5-min Rain = 0
KAD1 101257Z 22006KT 22/15 A3033 RMK A01 T02180154  RH  067%=      5-min Rain = 0
KAD1 101258Z 22006KT 22/15 A3033 RMK A01 T02190154  RH  066%=      5-min Rain = 0
KAD1 101259Z 22006KT 22/15 A3033 RMK A01 T02200154  RH  066%=      5-min Rain = 0
KAD1 101300Z 22006KT 22/15 A3033 RMK A01 T02210154  RH  066%=      5-min Rain = 0
KAD1 101301Z 22007KT 22/15 A3033 RMK A01 T02220154  RH  065%=      5-min Rain = 0
KAD1 101302Z 22007KT 22/16 A3033 RMK A01 T02240155  RH  065%=      5-min Rain = 0
KAD1 101303Z 22007KT 22/15 A3033 RMK A01 T02240154  RH  065%=      5-min Rain = 0
KAD1 101304Z 22008KT 22/15 A3033 RMK A01 T02240154  RH  064%=      5-min Rain = 0
KAD1 101305Z 22006KT 23/15 A3033 RMK A01 T02250154  RH  064%=      5-min Rain = 0
KAD1 101306Z 22006KT 23/15 A3033 RMK A01 T02250154  RH  064%=      5-min Rain = 0
KAD1 101307Z 22007KT 23/15 A3033 RMK A01 T02250154  RH  064%=      5-min Rain = 0
KAD1 101308Z 22007KT 23/15 A3033 RMK A01 T02250153  RH  064%=      5-min Rain = 0
KAD1 101309Z 22008KT 23/15 A3033 RMK A01 T02260153  RH  064%=      5-min Rain = 0
KAD1 101310Z 22007KT 23/15 A3033 RMK A01 T02250153  RH  064%=      5-min Rain = 0
KAD1 101311Z 22007KT 23/15 A3033 RMK A01 T02250153  RH  064%=      5-min Rain = 0
KAD1 101312Z 22006KT 23/15 A3033 RMK A01 T02250153  RH  064%=      5-min Rain = 0
KAD1 101313Z 23008KT 23/15 A3033 RMK A01 T02260153  RH  063%=      5-min Rain = 0
KAD1 101314Z 23007KT 23/15 A3033 RMK A01 T02270153  RH  063%=      5-min Rain = 0
KAD1 101315Z 23006KT 23/15 A3033 RMK A01 T02280154  RH  063%=      5-min Rain = 0
KAD1 101316Z 23006KT 23/15 A3033 RMK A01 T02290153  RH  062%=      5-min Rain = 0
KAD1 101317Z 23006KT 23/15 A3033 RMK A01 T02290152  RH  062%=      5-min Rain = 0
KAD1 101318Z 23006KT 23/15 A3033 RMK A01 T02300153  RH  062%=      5-min Rain = 0
KAD1 101319Z 23006KT 23/15 A3033 RMK A01 T02310154  RH  062%=      5-min Rain = 0
KAD1 101320Z 23006KT 23/15 A3033 RMK A01 T02310154  RH  062%=      5-min Rain = 0
KAD1 101321Z 23006KT 23/15 A3033 RMK A01 T02320153  RH  061%=      5-min Rain = 0
KAD1 101322Z 23008KT 23/15 A3033 RMK A01 T02330153  RH  061%=      5-min Rain = 0
KAD1 101323Z 23007KT 23/15 A3033 RMK A01 T02340152  RH  060%=      5-min Rain = 0
KAD1 101324Z 23007KT 23/15 A3033 RMK A01 T02340153  RH  060%=      5-min Rain = 0
KAD1 101325Z 23008KT 24/15 A3033 RMK A01 T02350153  RH  060%=      5-min Rain = 0
KAD1 101326Z 23007KT 24/15 A3033 RMK A01 T02350152  RH  060%=      5-min Rain = 0
KAD1 101327Z 23007KT 24/15 A3033 RMK A01 T02360153  RH  060%=      5-min Rain = 0
KAD1 101328Z 24007KT 24/15 A3033 RMK A01 T02370152  RH  059%=      5-min Rain = 0
KAD1 101329Z 23008KT 24/15 A3033 RMK A01 T02380152  RH  059%=      5-min Rain = 0
KAD1 101330Z 23008KT 24/15 A3033 RMK A01 T02380152  RH  058%=      5-min Rain = 0
KAD1 101331Z 23007KT 24/15 A3033 RMK A01 T02390151  RH  058%=      5-min Rain = 0
KAD1 101332Z 23007KT 24/15 A3033 RMK A01 T02400153  RH  058%=      5-min Rain = 0
KAD1 101333Z 24007KT 24/15 A3033 RMK A01 T02410151  RH  057%=      5-min Rain = 0
KAD1 101334Z 24008KT 24/15 A3033 RMK A01 T02410151  RH  057%=      5-min Rain = 0
KAD1 101335Z 24009KT 24/15 A3033 RMK A01 T02410150  RH  057%=      5-min Rain = 0
KAD1 101336Z 24007KT 24/15 A3033 RMK A01 T02410150  RH  057%=      5-min Rain = 0
KAD1 101337Z 24007KT 24/15 A3033 RMK A01 T02430152  RH  057%=      5-min Rain = 0
KAD1 101338Z 23008KT 24/15 A3033 RMK A01 T02440150  RH  056%=      5-min Rain = 0
KAD1 101339Z 24007KT 24/15 A3033 RMK A01 T02440149  RH  055%=      5-min Rain = 0
KAD1 101340Z 24008KT 25/15 A3033 RMK A01 T02450149  RH  055%=      5-min Rain = 0
KAD1 101341Z 24009KT 25/15 A3033 RMK A01 T02450149  RH  055%=      5-min Rain = 0
KAD1 101342Z 23010KT 25/15 A3033 RMK A01 T02460148  RH  054%=      5-min Rain = 0
KAD1 101343Z 23010KT 25/15 A3033 RMK A01 T02460148  RH  054%=      5-min Rain = 0
KAD1 101344Z 23009KT 25/15 A3033 RMK A01 T02460148  RH  054%=      5-min Rain = 0
KAD1 101345Z 23010KT 25/15 A3033 RMK A01 T02460148  RH  054%=      5-min Rain = 0
KAD1 101346Z 23009KT 25/15 A3033 RMK A01 T02470148  RH  054%=      5-min Rain = 0
KAD1 101347Z 23009KT 25/15 A3033 RMK A01 T02470148  RH  054%=      5-min Rain = 0
KAD1 101348Z 23008KT 25/15 A3033 RMK A01 T02480148  RH  054%=      5-min Rain = 0
KAD1 101349Z 22009KT 25/15 A3033 RMK A01 T02480148  RH  054%=      5-min Rain = 0
KAD1 101350Z 23008KT 25/15 A3033 RMK A01 T02470148  RH  054%=      5-min Rain = 0
KAD1 101351Z 23009KT 25/15 A3033 RMK A01 T02490147  RH  053%=      5-min Rain = 0
KAD1 101352Z 23009KT 25/15 A3033 RMK A01 T02500148  RH  053%=      5-min Rain = 0
KAD1 101353Z 24009KT 25/15 A3033 RMK A01 T02500147  RH  053%=      5-min Rain = 0
KAD1 101354Z 24007KT 25/15 A3033 RMK A01 T02510148  RH  053%=      5-min Rain = 0
KAD1 101355Z 23010KT 25/15 A3033 RMK A01 T02510148  RH  053%=      5-min Rain = 0
KAD1 101356Z 24008KT 25/15 A3033 RMK A01 T02510148  RH  053%=      5-min Rain = 0
KAD1 101357Z 23010KT 25/15 A3033 RMK A01 T02510148  RH  053%=      5-min Rain = 0
KAD1 101358Z 23009KT 25/15 A3033 RMK A01 T02510147  RH  052%=      5-min Rain = 0
KAD1 101359Z 23010KT 25/15 A3033 RMK A01 T02510148  RH  053%=      5-min Rain = 0
KAD1 101400Z 23010KT 25/15 A3033 RMK A01 T02510146  RH  052%=      5-min Rain = 0
KAD1 101401Z 23009KT 25/15 A3033 RMK A01 T02500147  RH  053%=      5-min Rain = 0
KAD1 101402Z 23009KT 25/15 A3033 RMK A01 T02500146  RH  052%=      5-min Rain = 0
KAD1 101403Z 23009KT 25/15 A3033 RMK A01 T02510145  RH  052%=      5-min Rain = 0
KAD1 101404Z 23008KT 25/14 A3033 RMK A01 T02520144  RH  051%=      5-min Rain = 0
KAD1 101405Z 22009KT 25/14 A3033 RMK A01 T02520144  RH  051%=      5-min Rain = 0
KAD1 101406Z 23007KT 25/15 A3033 RMK A01 T02520146  RH  052%=      5-min Rain = 0
KAD1 101407Z 25008KT 25/15 A3033 RMK A01 T02520147  RH  052%=      5-min Rain = 0
KAD1 101408Z 24010KT 25/15 A3033 RMK A01 T02530146  RH  052%=      5-min Rain = 0
KAD1 101409Z 24007KT 25/15 A3033 RMK A01 T02520147  RH  052%=      5-min Rain = 0
KAD1 101410Z 24007KT 25/15 A3033 RMK A01 T02520148  RH  053%=      5-min Rain = 0
KAD1 101411Z 24007KT 25/15 A3033 RMK A01 T02520149  RH  053%=      5-min Rain = 0
KAD1 101412Z 24010KT 25/15 A3033 RMK A01 T02540150  RH  052%=      5-min Rain = 0
KAD1 101413Z 23008KT 26/15 A3033 RMK A01 T02560148  RH  051%=      5-min Rain = 0
KAD1 101414Z 25009KT 26/15 A3033 RMK A01 T02550147  RH  051%=      5-min Rain = 0
KAD1 101415Z 25009KT 25/15 A3033 RMK A01 T02540146  RH  051%=      5-min Rain = 0
KAD1 101416Z 23011KT 25/15 A3033 RMK A01 T02540147  RH  051%=      5-min Rain = 0
KAD1 101417Z 22007KT 25/15 A3033 RMK A01 T02540148  RH  052%=      5-min Rain = 0
KAD1 101418Z 26008KT 26/15 A3033 RMK A01 T02550149  RH  052%=      5-min Rain = 0
KAD1 101419Z 23009KT 26/15 A3033 RMK A01 T02570148  RH  051%=      5-min Rain = 0
KAD1 101420Z 23009KT 26/15 A3033 RMK A01 T02580146  RH  050%=      5-min Rain = 0
KAD1 101421Z 23007KT 26/15 A3033 RMK A01 T02580147  RH  050%=      5-min Rain = 0
KAD1 101422Z 23007KT 26/15 A3033 RMK A01 T02580148  RH  051%=      5-min Rain = 0
KAD1 101423Z 23008KT 26/15 A3033 RMK A01 T02590147  RH  050%=      5-min Rain = 0
KAD1 101424Z 24007KT 26/15 A3033 RMK A01 T02600148  RH  050%=      5-min Rain = 0
KAD1 101425Z 26009KT 26/15 A3033 RMK A01 T02590148  RH  050%=      5-min Rain = 0
KAD1 101426Z 25008KT 26/15 A3033 RMK A01 T02570148  RH  051%=      5-min Rain = 0
KAD1 101427Z 26010KT 26/15 A3033 RMK A01 T02570148  RH  051%=      5-min Rain = 0
KAD1 101428Z 24007KT 26/15 A3033 RMK A01 T02570149  RH  051%=      5-min Rain = 0
KAD1 101429Z 24009KT 26/15 A3033 RMK A01 T02610150  RH  051%=      5-min Rain = 0
KAD1 101430Z 24009KT 26/15 A3033 RMK A01 T02640147  RH  049%=      5-min Rain = 0
KAD1 101431Z 25007KT 26/15 A3033 RMK A01 T02630147  RH  049%=      5-min Rain = 0
KAD1 101432Z 25008KT 26/15 A3033 RMK A01 T02610147  RH  050%=      5-min Rain = 0
KAD1 101433Z 25009KT 26/15 A3033 RMK A01 T02600148  RH  050%=      5-min Rain = 0
KAD1 101434Z 25007KT 26/15 A3033 RMK A01 T02610148  RH  050%=      5-min Rain = 0
KAD1 101435Z 24010KT 26/15 A3033 RMK A01 T02640150  RH  050%=      5-min Rain = 0
KAD1 101436Z 24010KT 27/15 A3033 RMK A01 T02650147  RH  048%=      5-min Rain = 0
KAD1 101437Z 23007KT 26/15 A3033 RMK A01 T02630146  RH  049%=      5-min Rain = 0
KAD1 101438Z 24007KT 26/15 A3033 RMK A01 T02610148  RH  050%=      5-min Rain = 0
KAD1 101439Z 26009KT 26/15 A3033 RMK A01 T02630149  RH  049%=      5-min Rain = 0
KAD1 101440Z 25013KT 26/15 A3033 RMK A01 T02640147  RH  049%=      5-min Rain = 0
KAD1 101441Z 25010KT 26/15 A3033 RMK A01 T02630147  RH  049%=      5-min Rain = 0
KAD1 101442Z 25009KT 26/15 A3033 RMK A01 T02620147  RH  049%=      5-min Rain = 0
KAD1 101443Z 25010KT 26/15 A3033 RMK A01 T02600147  RH  050%=      5-min Rain = 0
KAD1 101444Z 24009KT 26/15 A3033 RMK A01 T02600147  RH  050%=      5-min Rain = 0
KAD1 101445Z 25010KT 26/15 A3033 RMK A01 T02590146  RH  050%=      5-min Rain = 0
KAD1 101446Z 24009KT 26/15 A3033 RMK A01 T02620145  RH  049%=      5-min Rain = 0
KAD1 101447Z 24010KT 26/15 A3033 RMK A01 T02640145  RH  048%=      5-min Rain = 0
KAD1 101448Z 23010KT 26/14 A3033 RMK A01 T02640142  RH  047%=      5-min Rain = 0
KAD1 101449Z 23008KT 26/14 A3032 RMK A01 T02640140  RH  046%=      5-min Rain = 0
KAD1 101450Z 22011KT 26/14 A3032 RMK A01 T02620143  RH  048%=      5-min Rain = 0
KAD1 101451Z 23009KT 26/14 A3033 RMK A01 T02630144  RH  048%=      5-min Rain = 0
KAD1 101452Z 23007KT 26/14 A3032 RMK A01 T02630144  RH  048%=      5-min Rain = 0
KAD1 101453Z 23011KT 26/15 A3032 RMK A01 T02630146  RH  048%=      5-min Rain = 0
KAD1 101454Z 24011KT 27/15 A3032 RMK A01 T02650146  RH  048%=      5-min Rain = 0
KAD1 101455Z 24010KT 27/14 A3032 RMK A01 T02660144  RH  047%=      5-min Rain = 0
KAD1 101456Z 22009KT 27/14 A3032 RMK A01 T02650142  RH  047%=      5-min Rain = 0
KAD1 101457Z 23012KT 26/14 A3032 RMK A01 T02640142  RH  047%=      5-min Rain = 0
KAD1 101458Z 23010KT 26/14 A3032 RMK A01 T02620142  RH  048%=      5-min Rain = 0
KAD1 101459Z 22009KT 26/14 A3032 RMK A01 T02610143  RH  048%=      5-min Rain = 0
KAD1 101500Z 22008KT 26/14 A3032 RMK A01 T02620144  RH  048%=      5-min Rain = 0
KAD1 101501Z 21007KT 26/14 A3032 RMK A01 T02640143  RH  047%=      5-min Rain = 0
KAD1 101502Z 22006KT 26/14 A3032 RMK A01 T02630143  RH  047%=      5-min Rain = 0
KAD1 101503Z 23008KT 26/14 A3032 RMK A01 T02630144  RH  048%=      5-min Rain = 0
KAD1 101504Z 25010KT 26/15 A3032 RMK A01 T02640145  RH  048%=      5-min Rain = 0
KAD1 101505Z 26012KT 27/14 A3032 RMK A01 T02660144  RH  047%=      5-min Rain = 0
KAD1 101506Z 25010KT 27/14 A3032 RMK A01 T02660143  RH  047%=      5-min Rain = 0
KAD1 101507Z 25006KT 27/14 A3032 RMK A01 T02650143  RH  047%=      5-min Rain = 0
KAD1 101508Z 24009KT 27/14 A3032 RMK A01 T02650144  RH  047%=      5-min Rain = 0
KAD1 101509Z 26011KT 27/14 A3032 RMK A01 T02670142  RH  046%=      5-min Rain = 0
KAD1 101510Z 26010KT 27/14 A3032 RMK A01 T02680142  RH  046%=      5-min Rain = 0
KAD1 101511Z 26009KT 27/14 A3032 RMK A01 T02680143  RH  046%=      5-min Rain = 0
KAD1 101512Z 26008KT 27/14 A3032 RMK A01 T02700143  RH  046%=      5-min Rain = 0
KAD1 101513Z 27006KT 27/14 A3032 RMK A01 T02680142  RH  046%=      5-min Rain = 0
KAD1 101514Z 27009KT 27/14 A3032 RMK A01 T02660143  RH  047%=      5-min Rain = 0
KAD1 101515Z 27011KT 27/14 A3032 RMK A01 T02680142  RH  046%=      5-min Rain = 0
KAD1 101516Z 26011KT 27/14 A3032 RMK A01 T02690143  RH  046%=      5-min Rain = 0
KAD1 101517Z 26011KT 27/14 A3032 RMK A01 T02710144  RH  046%=      5-min Rain = 0
KAD1 101518Z 25010KT 27/14 A3032 RMK A01 T02700144  RH  046%=      5-min Rain = 0
KAD1 101519Z 25010KT 27/14 A3032 RMK A01 T02700144  RH  046%=      5-min Rain = 0
KAD1 101520Z 26008KT 27/14 A3032 RMK A01 T02690142  RH  046%=      5-min Rain = 0
KAD1 101521Z 25009KT 27/14 A3032 RMK A01 T02680142  RH  046%=      5-min Rain = 0
KAD1 101522Z 25008KT 27/14 A3032 RMK A01 T02680141  RH  046%=      5-min Rain = 0
KAD1 101523Z 23006KT 27/14 A3032 RMK A01 T02670142  RH  046%=      5-min Rain = 0
KAD1 101524Z 26008KT 27/14 A3032 RMK A01 T02670143  RH  047%=      5-min Rain = 0
KAD1 101525Z 26011KT 27/14 A3032 RMK A01 T02670142  RH  046%=      5-min Rain = 0
KAD1 101526Z 25008KT 27/14 A3032 RMK A01 T02680143  RH  046%=      5-min Rain = 0
KAD1 101527Z 24007KT 27/14 A3032 RMK A01 T02670143  RH  046%=      5-min Rain = 0
KAD1 101528Z 24006KT 27/14 A3032 RMK A01 T02670143  RH  047%=      5-min Rain = 0
KAD1 101529Z 25007KT 27/14 A3031 RMK A01 T02680143  RH  046%=      5-min Rain = 0
KAD1 101530Z 26011KT 27/14 A3032 RMK A01 T02700143  RH  046%=      5-min Rain = 0
KAD1 101531Z 25012KT 27/14 A3032 RMK A01 T02700142  RH  045%=      5-min Rain = 0
KAD1 101532Z 24010KT 27/14 A3031 RMK A01 T02710142  RH  045%=      5-min Rain = 0
KAD1 101533Z 24009KT 27/14 A3031 RMK A01 T02720139  RH  044%=      5-min Rain = 0
KAD1 101534Z 23007KT 27/14 A3031 RMK A01 T02690139  RH  045%=      5-min Rain = 0
KAD1 101535Z 24008G13KT 27/14 A3031 RMK A01 T02680140  RH  045%=      5-min Rain = 0
KAD1 101536Z 22008KT 27/14 A3031 RMK A01 T02670141  RH  046%=      5-min Rain = 0
KAD1 101537Z 24010KT 27/14 A3031 RMK A01 T02680142  RH  046%=      5-min Rain = 0
KAD1 101538Z 24009KT 27/14 A3031 RMK A01 T02700143  RH  046%=      5-min Rain = 0
KAD1 101539Z 25009KT 27/14 A3031 RMK A01 T02710142  RH  045%=      5-min Rain = 0
KAD1 101540Z 25008KT 27/14 A3031 RMK A01 T02710142  RH  045%=      5-min Rain = 0
KAD1 101541Z 23007KT 27/14 A3031 RMK A01 T02710141  RH  045%=      5-min Rain = 0
KAD1 101542Z 23008KT 27/14 A3031 RMK A01 T02710140  RH  045%=      5-min Rain = 0
KAD1 101543Z 26010KT 27/14 A3031 RMK A01 T02700141  RH  045%=      5-min Rain = 0
KAD1 101544Z 27008KT 27/14 A3031 RMK A01 T02730139  RH  044%=      5-min Rain = 0
KAD1 101545Z 27008KT 27/14 A3031 RMK A01 T02740140  RH  044%=      5-min Rain = 0
KAD1 101546Z 28008KT 28/14 A3031 RMK A01 T02750139  RH  043%=      5-min Rain = 0
KAD1 101547Z 23006KT 28/14 A3031 RMK A01 T02750141  RH  044%=      5-min Rain = 0
KAD1 101548Z 23009KT 27/14 A3031 RMK A01 T02740141  RH  044%=      5-min Rain = 0
KAD1 101549Z 24010KT 27/14 A3031 RMK A01 T02740140  RH  044%=      5-min Rain = 0
KAD1 101550Z 24008KT 27/14 A3031 RMK A01 T02730137  RH  043%=      5-min Rain = 0
KAD1 101551Z 24007KT 27/14 A3031 RMK A01 T02720138  RH  044%=      5-min Rain = 0
KAD1 101552Z 24005KT 27/14 A3031 RMK A01 T02720137  RH  043%=      5-min Rain = 0
KAD1 101553Z 27007KT 27/14 A3031 RMK A01 T02720138  RH  044%=      5-min Rain = 0
KAD1 101554Z 26007KT 27/14 A3031 RMK A01 T02730137  RH  043%=      5-min Rain = 0
KAD1 101555Z 24006KT 28/14 A3031 RMK A01 T02750136  RH  042%=      5-min Rain = 0
KAD1 101556Z 25006KT 28/14 A3031 RMK A01 T02760138  RH  043%=      5-min Rain = 0
KAD1 101557Z 26009KT 28/14 A3031 RMK A01 T02810142  RH  043%=      5-min Rain = 0
KAD1 101558Z 28010KT 28/14 A3031 RMK A01 T02820141  RH  042%=      5-min Rain = 0
KAD1 101559Z 27008KT 28/14 A3031 RMK A01 T02800140  RH  042%=      5-min Rain = 0
KAD1 101600Z 26008KT 28/14 A3031 RMK A01 T02770140  RH  043%=      5-min Rain = 0
KAD1 101601Z 26008KT 28/14 A3031 RMK A01 T02770141  RH  043%=      5-min Rain = 0
KAD1 101602Z 21007KT 28/14 A3031 RMK A01 T02780141  RH  043%=      5-min Rain = 0
KAD1 101603Z 20007KT 28/14 A3031 RMK A01 T02790141  RH  043%=      5-min Rain = 0
KAD1 101604Z 19008KT 28/14 A3031 RMK A01 T02790141  RH  043%=      5-min Rain = 0
KAD1 101605Z 22006KT 28/14 A3031 RMK A01 T02770142  RH  043%=      5-min Rain = 0
KAD1 101606Z 16006KT 28/14 A3031 RMK A01 T02780141  RH  043%=      5-min Rain = 0
KAD1 101607Z 19005KT 28/14 A3031 RMK A01 T02800144  RH  043%=      5-min Rain = 0
KAD1 101608Z 23004KT 28/14 A3031 RMK A01 T02820143  RH  042%=      5-min Rain = 0
KAD1 101609Z 24007KT 28/14 A3031 RMK A01 T02830143  RH  042%=      5-min Rain = 0
KAD1 101610Z 23004KT 28/14 A3031 RMK A01 T02800141  RH  042%=      5-min Rain = 0
KAD1 101611Z 24008KT 28/14 A3031 RMK A01 T02780139  RH  042%=      5-min Rain = 0
KAD1 101612Z 26007KT 28/14 A3031 RMK A01 T02780138  RH  042%=      5-min Rain = 0
KAD1 101613Z 27006KT 28/14 A3031 RMK A01 T02780137  RH  042%=      5-min Rain = 0
KAD1 101614Z 25007KT 28/14 A3031 RMK A01 T02770137  RH  042%=      5-min Rain = 0
KAD1 101615Z 27005KT 28/14 A303 RMK A01 T02790136  RH  041%=      5-min Rain = 0
KAD1 101616Z 23006KT 28/14 A3031 RMK A01 T02790136  RH  041%=      5-min Rain = 0
KAD1 101617Z 24006KT 28/14 A3031 RMK A01 T02800135  RH  041%=      5-min Rain = 0
KAD1 101618Z 26004KT 28/14 A303 RMK A01 T02790135  RH  041%=      5-min Rain = 0
KAD1 101619Z 28003KT 28/13 A303 RMK A01 T02780134  RH  041%=      5-min Rain = 0
KAD1 101620Z 24004KT 28/13 A303 RMK A01 T02790134  RH  041%=      5-min Rain = 0
KAD1 101621Z 23005KT 28/14 A303 RMK A01 T02800136  RH  041%=      5-min Rain = 0
KAD1 101622Z 20005KT 28/14 A303 RMK A01 T02830135  RH  040%=      5-min Rain = 0
KAD1 101623Z 20005KT 28/14 A303 RMK A01 T02840135  RH  040%=      5-min Rain = 0
KAD1 101624Z 19005KT 28/14 A303 RMK A01 T02820135  RH  040%=      5-min Rain = 0
KAD1 101625Z 20007KT 28/14 A303 RMK A01 T02820135  RH  040%=      5-min Rain = 0
KAD1 101626Z 18006KT 28/13 A303 RMK A01 T02810133  RH  040%=      5-min Rain = 0
KAD1 101627Z 19006KT 28/13 A303 RMK A01 T02800134  RH  041%=      5-min Rain = 0
KAD1 101628Z 19004KT 28/13 A303 RMK A01 T02790134  RH  041%=      5-min Rain = 0
KAD1 101629Z 21008KT 28/14 A303 RMK A01 T02820135  RH  041%=      5-min Rain = 0
KAD1 101630Z 22007KT 28/13 A303 RMK A01 T02840133  RH  040%=      5-min Rain = 0
KAD1 101631Z 22005KT 29/13 A303 RMK A01 T02850133  RH  039%=      5-min Rain = 0
KAD1 101632Z 21006KT 29/13 A303 RMK A01 T02860132  RH  039%=      5-min Rain = 0
KAD1 101633Z 17004KT 29/14 A303 RMK A01 T02850135  RH  040%=      5-min Rain = 0
KAD1 101634Z 20009G14KT 29/13 A303 RMK A01 T02860131  RH  038%=      5-min Rain = 0
KAD1 101635Z 20011KT 29/13 A303 RMK A01 T02860130  RH  038%=      5-min Rain = 0
KAD1 101636Z 21009KT 29/13 A303 RMK A01 T02850131  RH  039%=      5-min Rain = 0
KAD1 101637Z 21010KT 29/13 A303 RMK A01 T02860131  RH  039%=      5-min Rain = 0
KAD1 101638Z 24008KT 29/13 A303 RMK A01 T02870129  RH  038%=      5-min Rain = 0
KAD1 101639Z 23005KT 29/13 A303 RMK A01 T02860130  RH  038%=      5-min Rain = 0
KAD1 101640Z 21008KT 29/13 A303 RMK A01 T02860130  RH  038%=      5-min Rain = 0
KAD1 101641Z 21008KT 29/13 A303 RMK A01 T02870131  RH  038%=      5-min Rain = 0
KAD1 101642Z 20007KT 29/13 A303 RMK A01 T02890132  RH  038%=      5-min Rain = 0
KAD1 101643Z 22002KT 29/13 A303 RMK A01 T02870131  RH  038%=      5-min Rain = 0
KAD1 101644Z 26002KT 29/13 A303 RMK A01 T02860132  RH  039%=      5-min Rain = 0
KAD1 101645Z 23003KT 29/13 A303 RMK A01 T02860132  RH  039%=      5-min Rain = 0
KAD1 101646Z 25007KT 29/13 A303 RMK A01 T02870130  RH  038%=      5-min Rain = 0
KAD1 101647Z 21011KT 29/13 A303 RMK A01 T02860128  RH  038%=      5-min Rain = 0
KAD1 101648Z 22011KT 29/13 A303 RMK A01 T02860127  RH  038%=      5-min Rain = 0
KAD1 101649Z 22009KT 29/13 A303 RMK A01 T02880129  RH  038%=      5-min Rain = 0
KAD1 101650Z 21006KT 29/13 A303 RMK A01 T02870126  RH  037%=      5-min Rain = 0
KAD1 101651Z 20006KT 29/13 A303 RMK A01 T02850127  RH  038%=      5-min Rain = 0
KAD1 101652Z 19009KT 28/13 A303 RMK A01 T02840128  RH  038%=      5-min Rain = 0
KAD1 101653Z 20010KT 28/13 A303 RMK A01 T02830126  RH  038%=      5-min Rain = 0
KAD1 101654Z 19006KT 28/12 A303 RMK A01 T02790124  RH  038%=      5-min Rain = 0
KAD1 101655Z 23010G15KT 28/13 A303 RMK A01 T02790127  RH  039%=      5-min Rain = 0
KAD1 101656Z 23010KT 28/13 A303 RMK A01 T02800125  RH  038%=      5-min Rain = 0
KAD1 101657Z 23008KT 28/13 A303 RMK A01 T02780127  RH  039%=      5-min Rain = 0
KAD1 101658Z 24006KT 28/13 A303 RMK A01 T02760127  RH  040%=      5-min Rain = 0
KAD1 101659Z 25006KT 28/13 A303 RMK A01 T02760128  RH  040%=      5-min Rain = 0
KAD1 101700Z 22004KT 28/13 A303 RMK A01 T02750126  RH  040%=      5-min Rain = 0
KAD1 101701Z 20005KT 28/13 A303 RMK A01 T02760128  RH  040%=      5-min Rain = 0
KAD1 101702Z 17005KT 28/13 A303 RMK A01 T02760126  RH  039%=      5-min Rain = 0
KAD1 101703Z 18004KT 28/12 A303 RMK A01 T02780124  RH  039%=      5-min Rain = 0
KAD1 101704Z 17009KT 28/13 A303 RMK A01 T02820126  RH  038%=      5-min Rain = 0
KAD1 101705Z 17008KT 29/12 A303 RMK A01 T02850123  RH  037%=      5-min Rain = 0
KAD1 101706Z 17011KT 29/13 A303 RMK A01 T02880126  RH  037%=      5-min Rain = 0
KAD1 101707Z 15010KT 29/12 A303 RMK A01 T02900124  RH  036%=      5-min Rain = 0
KAD1 101708Z 16008KT 29/13 A303 RMK A01 T02910125  RH  036%=      5-min Rain = 0
KAD1 101709Z 16007KT 29/13 A303 RMK A01 T02920126  RH  036%=      5-min Rain = 0
KAD1 101710Z 14008KT 29/13 A3029 RMK A01 T02930127  RH  036%=      5-min Rain = 0
KAD1 101711Z 12007KT 30/12 A3029 RMK A01 T02950124  RH  035%=      5-min Rain = 0
KAD1 101712Z 19009KT 29/12 A3029 RMK A01 T02940124  RH  035%=      5-min Rain = 0
KAD1 101713Z 19011KT 29/13 A3029 RMK A01 T02940127  RH  036%=      5-min Rain = 0
KAD1 101714Z 21011KT 30/13 A3029 RMK A01 T02970128  RH  035%=      5-min Rain = 0
KAD1 101715Z 19012KT 30/13 A3029 RMK A01 T02990130  RH  036%=      5-min Rain = 0
KAD1 101716Z 18008KT 30/13 A3029 RMK A01 T02960129  RH  036%=      5-min Rain = 0
KAD1 101717Z 17009KT 30/13 A3029 RMK A01 T02950130  RH  036%=      5-min Rain = 0
KAD1 101718Z 16008KT 29/13 A3029 RMK A01 T02920126  RH  036%=      5-min Rain = 0
KAD1 101719Z 15006KT 29/13 A3029 RMK A01 T02880127  RH  037%=      5-min Rain = 0
KAD1 101720Z 20006KT 29/13 A3029 RMK A01 T02880128  RH  037%=      5-min Rain = 0
KAD1 101721Z 22007KT 29/13 A3029 RMK A01 T02910128  RH  037%=      5-min Rain = 0
KAD1 101722Z 20007KT 29/13 A3029 RMK A01 T02940128  RH  036%=      5-min Rain = 0
KAD1 101723Z 19003KT 29/13 A3029 RMK A01 T02930125  RH  036%=      5-min Rain = 0
KAD1 101724Z 21003KT 29/12 A3029 RMK A01 T02910124  RH  036%=      5-min Rain = 0
KAD1 101725Z 21009G17KT 29/12 A3028 RMK A01 T02900124  RH  036%=      5-min Rain = 0
KAD1 101726Z 16011KT 30/13 A3029 RMK A01 T02950129  RH  036%=      5-min Rain = 0
KAD1 101727Z 17010KT 30/13 A3029 RMK A01 T02990126  RH  034%=      5-min Rain = 0
KAD1 101728Z 16012KT 30/13 A3029 RMK A01 T02990127  RH  035%=      5-min Rain = 0
KAD1 101729Z 16009KT 30/13 A3029 RMK A01 T02970125  RH  035%=      5-min Rain = 0
KAD1 101730Z 15008KT 29/12 A3029 RMK A01 T02930124  RH  035%=      5-min Rain = 0
KAD1 101731Z 16009KT 29/12 A3029 RMK A01 T02940124  RH  035%=      5-min Rain = 0
KAD1 101732Z 15008KT 30/13 A3029 RMK A01 T02950125  RH  035%=      5-min Rain = 0
KAD1 101733Z 17007KT 30/12 A3029 RMK A01 T02960119  RH  034%=      5-min Rain = 0
KAD1 101734Z 18011KT 29/12 A3028 RMK A01 T02940120  RH  034%=      5-min Rain = 0
KAD1 101735Z 19007KT 29/12 A3028 RMK A01 T02930118  RH  034%=      5-min Rain = 0
KAD1 101736Z 17007KT 29/12 A3028 RMK A01 T02920118  RH  034%=      5-min Rain = 0
KAD1 101737Z 13010KT 29/12 A3028 RMK A01 T02920118  RH  034%=      5-min Rain = 0
KAD1 101738Z 13006G11KT 30/12 A3028 RMK A01 T02970116  RH  033%=      5-min Rain = 0
KAD1 101739Z 13007KT 30/12 A3028 RMK A01 T02960116  RH  033%=      5-min Rain = 0
KAD1 101740Z 14009KT 29/12 A3028 RMK A01 T02940115  RH  033%=      5-min Rain = 0
KAD1 101741Z 15010KT 29/12 A3028 RMK A01 T02940116  RH  033%=      5-min Rain = 0
KAD1 101742Z 14007KT 30/12 A3028 RMK A01 T02950119  RH  034%=      5-min Rain = 0
KAD1 101743Z 14005KT 29/12 A3028 RMK A01 T02940118  RH  034%=      5-min Rain = 0
KAD1 101744Z 16005KT 29/12 A3028 RMK A01 T02940120  RH  034%=      5-min Rain = 0
KAD1 101745Z 15005KT 30/12 A3028 RMK A01 T02960122  RH  034%=      5-min Rain = 0
KAD1 101746Z 16008G14KT 30/12 A3028 RMK A01 T02990121  RH  033%=      5-min Rain = 0
KAD1 101747Z 16011KT 30/11 A3028 RMK A01 T03010114  RH  032%=      5-min Rain = 0
KAD1 101748Z 17010KT 30/11 A3028 RMK A01 T03030111  RH  031%=      5-min Rain = 0
KAD1 101749Z 17010KT 30/12 A3028 RMK A01 T03030116  RH  032%=      5-min Rain = 0
KAD1 101750Z 15010KT 30/11 A3028 RMK A01 T03040113  RH  031%=      5-min Rain = 0
KAD1 101751Z 15009KT 31/11 A3028 RMK A01 T03060112  RH  030%=      5-min Rain = 0
KAD1 101752Z 14007KT 30/11 A3028 RMK A01 T03040106  RH  029%=      5-min Rain = 0
KAD1 101753Z 13007KT 30/11 A3028 RMK A01 T03020105  RH  030%=      5-min Rain = 0
KAD1 101754Z 14010KT 30/10 A3028 RMK A01 T03020103  RH  029%=      5-min Rain = 0
KAD1 101755Z 15011KT 31/09 A3028 RMK A01 T03050092  RH  027%=      5-min Rain = 0
KAD1 101756Z 15011KT 31/09 A3028 RMK A01 T03060093  RH  027%=      5-min Rain = 0
KAD1 101757Z 16012KT 31/10 A3028 RMK A01 T03080099  RH  027%=      5-min Rain = 0
KAD1 101758Z 18009KT 31/10 A3028 RMK A01 T03080104  RH  028%=      5-min Rain = 0
KAD1 101759Z 20005KT 30/10 A3028 RMK A01 T03030099  RH  028%=      5-min Rain = 0
KAD1 101800Z 16006KT 30/10 A3028 RMK A01 T03000103  RH  030%=      5-min Rain = 0
KAD1 101801Z 13014KT 30/11 A3028 RMK A01 T03000112  RH  031%=      5-min Rain = 0
KAD1 101802Z 12013KT 30/12 A3028 RMK A01 T03040116  RH  031%=      5-min Rain = 0
KAD1 101803Z 12013KT 31/12 A3028 RMK A01 T03070116  RH  031%=      5-min Rain = 0
KAD1 101804Z 13011KT 31/12 A3028 RMK A01 T03080115  RH  030%=      5-min Rain = 0
KAD1 101805Z 16011KT 31/12 A3028 RMK A01 T03110123  RH  032%=      5-min Rain = 0
KAD1 101806Z 15013KT 31/12 A3028 RMK A01 T03110124  RH  032%=      5-min Rain = 0
KAD1 101807Z 16014KT 31/12 A3027 RMK A01 T03100123  RH  032%=      5-min Rain = 0
KAD1 101808Z 15011KT 31/12 A3028 RMK A01 T03060120  RH  032%=      5-min Rain = 0
KAD1 101809Z 17010KT 30/12 A3028 RMK A01 T03020118  RH  032%=      5-min Rain = 0
KAD1 101810Z 18010KT 30/12 A3027 RMK A01 T03020118  RH  032%=      5-min Rain = 0
KAD1 101811Z 15009KT 30/12 A3027 RMK A01 T03030119  RH  032%=      5-min Rain = 0
KAD1 101812Z 16009KT 31/12 A3027 RMK A01 T03050118  RH  032%=      5-min Rain = 0
KAD1 101813Z 13008KT 30/12 A3027 RMK A01 T03040118  RH  032%=      5-min Rain = 0
KAD1 101814Z 12006KT 30/12 A3027 RMK A01 T03040118  RH  032%=      5-min Rain = 0
KAD1 101815Z 13006KT 30/12 A3027 RMK A01 T03040116  RH  031%=      5-min Rain = 0
KAD1 101816Z 12007G12KT 30/12 A3027 RMK A01 T03020117  RH  032%=      5-min Rain = 0
KAD1 101817Z 09006KT 30/12 A3027 RMK A01 T03000115  RH  032%=      5-min Rain = 0
KAD1 101818Z 13004KT 30/12 A3027 RMK A01 T02990117  RH  033%=      5-min Rain = 0
KAD1 101819Z 13007KT 30/12 A3027 RMK A01 T03000117  RH  032%=      5-min Rain = 0
KAD1 101820Z 17009KT 30/12 A3027 RMK A01 T03040118  RH  032%=      5-min Rain = 0
KAD1 101821Z 18011KT 31/11 A3027 RMK A01 T03080112  RH  030%=      5-min Rain = 0
KAD1 101822Z 16008KT 31/11 A3027 RMK A01 T03100112  RH  030%=      5-min Rain = 0
KAD1 101823Z 15006KT 31/11 A3027 RMK A01 T03100113  RH  030%=      5-min Rain = 0
KAD1 101824Z 16006KT 31/11 A3027 RMK A01 T03080111  RH  030%=      5-min Rain = 0
KAD1 101825Z 17004KT 31/11 A3027 RMK A01 T03050113  RH  031%=      5-min Rain = 0
KAD1 101826Z 15010G15KT 31/12 A3027 RMK A01 T03070117  RH  031%=      5-min Rain = 0
KAD1 101827Z 13012KT 31/11 A3026 RMK A01 T03100114  RH  030%=      5-min Rain = 0
KAD1 101828Z 13009KT 31/11 A3027 RMK A01 T03090113  RH  030%=      5-min Rain = 0
KAD1 101829Z 14010G15KT 31/11 A3026 RMK A01 T03080113  RH  030%=      5-min Rain = 0
KAD1 101830Z 17012KT 31/11 A3027 RMK A01 T03100112  RH  030%=      5-min Rain = 0
KAD1 101831Z 16012KT 31/11 A3027 RMK A01 T03110111  RH  029%=      5-min Rain = 0
KAD1 101832Z 17010KT 31/10 A3027 RMK A01 T03120103  RH  027%=      5-min Rain = 0
KAD1 101833Z 17010KT 31/10 A3027 RMK A01 T03090101  RH  028%=      5-min Rain = 0
KAD1 101834Z 16008KT 31/10 A3027 RMK A01 T03070099  RH  028%=      5-min Rain = 0
KAD1 101835Z 15007KT 31/10 A3026 RMK A01 T03050103  RH  029%=      5-min Rain = 0
KAD1 101836Z 15006KT 31/10 A3026 RMK A01 T03060101  RH  028%=      5-min Rain = 0
KAD1 101837Z 16006KT 31/11 A3026 RMK A01 T03060107  RH  029%=      5-min Rain = 0
KAD1 101838Z 15012G17KT 31/11 A3026 RMK A01 T03080111  RH  030%=      5-min Rain = 0
KAD1 101839Z 16010KT 31/11 A3026 RMK A01 T03100113  RH  030%=      5-min Rain = 0
KAD1 101840Z 15009KT 31/11 A3026 RMK A01 T03060113  RH  030%=      5-min Rain = 0
KAD1 101841Z 15007KT 31/11 A3026 RMK A01 T03060112  RH  030%=      5-min Rain = 0
KAD1 101842Z 13006KT 31/11 A3026 RMK A01 T03070111  RH  030%=      5-min Rain = 0
KAD1 101843Z 10005KT 31/11 A3026 RMK A01 T03050109  RH  030%=      5-min Rain = 0
KAD1 101844Z 13005KT 30/11 A3026 RMK A01 T03040112  RH  031%=      5-min Rain = 0
KAD1 101845Z 16007KT 31/11 A3026 RMK A01 T03050113  RH  031%=      5-min Rain = 0
KAD1 101846Z 15004KT 31/11 A3026 RMK A01 T03070111  RH  030%=      5-min Rain = 0
KAD1 101847Z 16008KT 31/11 A3026 RMK A01 T03090113  RH  030%=      5-min Rain = 0
KAD1 101848Z 16004KT 31/11 A3026 RMK A01 T03090112  RH  030%=      5-min Rain = 0
KAD1 101849Z 13005KT 31/11 A3026 RMK A01 T03090111  RH  030%=      5-min Rain = 0
KAD1 101850Z 13014KT 31/11 A3025 RMK A01 T03110112  RH  029%=      5-min Rain = 0
KAD1 101851Z 15011KT 31/11 A3026 RMK A01 T03140110  RH  029%=      5-min Rain = 0
KAD1 101852Z 16006KT 31/11 A3026 RMK A01 T03130109  RH  029%=      5-min Rain = 0
KAD1 101853Z 19010KT 32/11 A3026 RMK A01 T03150111  RH  029%=      5-min Rain = 0
KAD1 101854Z 18009KT 31/11 A3025 RMK A01 T03110107  RH  029%=      5-min Rain = 0
KAD1 101855Z 16006KT 31/11 A3025 RMK A01 T03070109  RH  029%=      5-min Rain = 0
KAD1 101856Z 15015KT 31/11 A3025 RMK A01 T03050107  RH  030%=      5-min Rain = 0
KAD1 101857Z 15017KT 30/11 A3025 RMK A01 T03040108  RH  030%=      5-min Rain = 0
KAD1 101858Z 15012G17KT 31/11 A3026 RMK A01 T03060108  RH  029%=      5-min Rain = 0
KAD1 101859Z 17007KT 31/11 A3025 RMK A01 T03060109  RH  030%=      5-min Rain = 0
KAD1 101900Z 16007KT 31/11 A3025 RMK A01 T03070108  RH  029%=      5-min Rain = 0
KAD1 101901Z 16007KT 31/11 A3025 RMK A01 T03070107  RH  029%=      5-min Rain = 0
KAD1 101902Z 13010KT 31/11 A3025 RMK A01 T03050107  RH  029%=      5-min Rain = 0
KAD1 101903Z 13006G15KT 30/11 A3025 RMK A01 T03030106  RH  030%=      5-min Rain = 0
KAD1 101904Z 15016KT 30/11 A3025 RMK A01 T03040110  RH  030%=      5-min Rain = 0
KAD1 101905Z 14011G18KT 31/11 A3025 RMK A01 T03100109  RH  029%=      5-min Rain = 0
KAD1 101906Z 16014KT 31/11 A3025 RMK A01 T03120113  RH  029%=      5-min Rain = 0
KAD1 101907Z 15009KT 31/11 A3025 RMK A01 T03120109  RH  029%=      5-min Rain = 0
KAD1 101908Z 16009KT 31/11 A3025 RMK A01 T03080109  RH  029%=      5-min Rain = 0
KAD1 101909Z 14008KT 31/11 A3025 RMK A01 T03060110  RH  030%=      5-min Rain = 0
KAD1 101910Z 15005KT 30/11 A3025 RMK A01 T03030106  RH  030%=      5-min Rain = 0
KAD1 101911Z 18006KT 30/11 A3025 RMK A01 T03020106  RH  030%=      5-min Rain = 0
KAD1 101912Z 18010KT 30/11 A3025 RMK A01 T03000107  RH  030%=      5-min Rain = 0
KAD1 101913Z 19009KT 30/11 A3025 RMK A01 T03000106  RH  030%=      5-min Rain = 0
KAD1 101914Z 18006KT 30/11 A3025 RMK A01 T03010105  RH  030%=      5-min Rain = 0
KAD1 101915Z 19006KT 30/11 A3025 RMK A01 T03000108  RH  030%=      5-min Rain = 0
KAD1 101916Z 15012KT 30/11 A3025 RMK A01 T02990110  RH  031%=      5-min Rain = 0
KAD1 101917Z 14014KT 30/11 A3025 RMK A01 T03030110  RH  030%=      5-min Rain = 0
KAD1 101918Z 14012KT 31/11 A3025 RMK A01 T03060110  RH  030%=      5-min Rain = 0
KAD1 101919Z 14011KT 31/11 A3025 RMK A01 T03080110  RH  029%=      5-min Rain = 0
KAD1 101920Z 17013KT 31/12 A3025 RMK A01 T03100116  RH  030%=      5-min Rain = 0
KAD1 101921Z 18012KT 31/11 A3025 RMK A01 T03140110  RH  029%=      5-min Rain = 0
KAD1 101922Z 17012KT 31/11 A3025 RMK A01 T03120113  RH  029%=      5-min Rain = 0
KAD1 101923Z 18012KT 31/11 A3025 RMK A01 T03140111  RH  029%=      5-min Rain = 0
KAD1 101924Z 18011KT 31/11 A3024 RMK A01 T03140110  RH  029%=      5-min Rain = 0
KAD1 101925Z 19010KT 31/11 A3024 RMK A01 T03130108  RH  028%=      5-min Rain = 0
KAD1 101926Z 21005KT 31/11 A3024 RMK A01 T03120108  RH  029%=      5-min Rain = 0
KAD1 101927Z 18007KT 31/11 A3024 RMK A01 T03110109  RH  029%=      5-min Rain = 0
KAD1 101928Z 18006KT 31/11 A3024 RMK A01 T03080111  RH  030%=      5-min Rain = 0
KAD1 101929Z 19005KT 31/11 A3024 RMK A01 T03070110  RH  030%=      5-min Rain = 0
KAD1 101930Z 17004KT 31/11 A3024 RMK A01 T03070110  RH  030%=      5-min Rain = 0
KAD1 101931Z 19006G12KT 31/11 A3024 RMK A01 T03070111  RH  030%=      5-min Rain = 0
KAD1 101932Z 17008KT 31/11 A3024 RMK A01 T03110114  RH  030%=      5-min Rain = 0
KAD1 101933Z 15003KT 32/11 A3024 RMK A01 T03150112  RH  029%=      5-min Rain = 0
KAD1 101934Z 16002KT 31/11 A3024 RMK A01 T03140111  RH  029%=      5-min Rain = 0
KAD1 101935Z 14004KT 31/12 A3024 RMK A01 T03140115  RH  029%=      5-min Rain = 0
KAD1 101936Z 14006KT 31/11 A3024 RMK A01 T03140112  RH  029%=      5-min Rain = 0
KAD1 101937Z 16008KT 31/11 A3024 RMK A01 T03100111  RH  029%=      5-min Rain = 0
KAD1 101938Z 14007KT 31/11 A3024 RMK A01 T03060110  RH  030%=      5-min Rain = 0
KAD1 101939Z 17009KT 30/11 A3024 RMK A01 T03030111  RH  031%=      5-min Rain = 0
KAD1 101940Z 17009KT 31/11 A3024 RMK A01 T03060113  RH  030%=      5-min Rain = 0
KAD1 101941Z 18009KT 31/11 A3024 RMK A01 T03110114  RH  030%=      5-min Rain = 0
KAD1 101942Z 19014KT 31/11 A3023 RMK A01 T03140114  RH  029%=      5-min Rain = 0
KAD1 101943Z 19013KT 32/11 A3023 RMK A01 T03150111  RH  029%=      5-min Rain = 0
KAD1 101944Z 19012KT 31/11 A3023 RMK A01 T03140112  RH  029%=      5-min Rain = 0
KAD1 101945Z 18009KT 31/11 A3023 RMK A01 T03140111  RH  029%=      5-min Rain = 0
KAD1 101946Z 16006KT 31/11 A3023 RMK A01 T03100110  RH  029%=      5-min Rain = 0
KAD1 101947Z 16005KT 31/11 A3023 RMK A01 T03080114  RH  030%=      5-min Rain = 0
KAD1 101948Z 13011G16KT 31/12 A3023 RMK A01 T03120117  RH  030%=      5-min Rain = 0
KAD1 101949Z 15012KT 32/12 A3023 RMK A01 T03160116  RH  029%=      5-min Rain = 0
KAD1 101950Z 17012KT 32/11 A3023 RMK A01 T03180114  RH  029%=      5-min Rain = 0
KAD1 101951Z 18008KT 32/11 A3023 RMK A01 T03170113  RH  029%=      5-min Rain = 0
KAD1 101952Z 15006KT 32/11 A3023 RMK A01 T03150112  RH  029%=      5-min Rain = 0
KAD1 101953Z 16007KT 31/11 A3023 RMK A01 T03120114  RH  030%=      5-min Rain = 0
KAD1 101954Z 16008G13KT 31/11 A3023 RMK A01 T03130114  RH  029%=      5-min Rain = 0
KAD1 101955Z 17010KT 32/12 A3023 RMK A01 T03150116  RH  030%=      5-min Rain = 0
KAD1 101956Z 14012KT 32/11 A3023 RMK A01 T03160114  RH  029%=      5-min Rain = 0
KAD1 101957Z 12012KT 32/11 A3023 RMK A01 T03190114  RH  028%=      5-min Rain = 0
KAD1 101958Z 11011G16KT 32/11 A3023 RMK A01 T03160113  RH  029%=      5-min Rain = 0
KAD1 101959Z 13012G17KT 31/11 A3023 RMK A01 T03130112  RH  029%=      5-min Rain = 0
KAD1 102000Z 12008G15KT 31/11 A3023 RMK A01 T03100112  RH  030%=      5-min Rain = 0
KAD1 102001Z 12013KT 31/11 A3023 RMK A01 T03100113  RH  030%=      5-min Rain = 0
KAD1 102002Z 13012KT 31/11 A3023 RMK A01 T03070113  RH  030%=      5-min Rain = 0
KAD1 102003Z 13013KT 30/11 A3023 RMK A01 T03040113  RH  031%=      5-min Rain = 0
KAD1 102004Z 13008G13KT 30/11 A3023 RMK A01 T03020113  RH  031%=      5-min Rain = 0
KAD1 102005Z 13010KT 30/11 A3023 RMK A01 T03010113  RH  032%=      5-min Rain = 0
KAD1 102006Z 13010KT 30/11 A3023 RMK A01 T03010113  RH  031%=      5-min Rain = 0
KAD1 102007Z 12005KT 30/11 A3023 RMK A01 T03000112  RH  031%=      5-min Rain = 0
KAD1 102008Z 11005KT 30/11 A3023 RMK A01 T02980113  RH  032%=      5-min Rain = 0
KAD1 102009Z 11008KT 30/11 A3022 RMK A01 T02990114  RH  032%=      5-min Rain = 0
KAD1 102010Z 11009KT 31/12 A3022 RMK A01 T03060119  RH  032%=      5-min Rain = 0
KAD1 102011Z 10010KT 31/12 A3022 RMK A01 T03110118  RH  030%=      5-min Rain = 0
KAD1 102012Z 08008KT 31/12 A3022 RMK A01 T03130118  RH  030%=      5-min Rain = 0
KAD1 102013Z 08006KT 31/12 A3022 RMK A01 T03100119  RH  031%=      5-min Rain = 0
KAD1 102014Z 15008KT 31/12 A3022 RMK A01 T03100119  RH  031%=      5-min Rain = 0
KAD1 102015Z 15006KT 31/12 A3022 RMK A01 T03120120  RH  031%=      5-min Rain = 0
KAD1 102016Z 14007KT 32/12 A3022 RMK A01 T03160119  RH  030%=      5-min Rain = 0
KAD1 102017Z 16011KT 32/12 A3022 RMK A01 T03150118  RH  030%=      5-min Rain = 0
KAD1 102018Z 16008KT 32/12 A3022 RMK A01 T03150119  RH  030%=      5-min Rain = 0
KAD1 102019Z 18012KT 32/12 A3022 RMK A01 T03170120  RH  030%=      5-min Rain = 0
KAD1 102020Z 19016KT 32/12 A3022 RMK A01 T03220117  RH  028%=      5-min Rain = 0
KAD1 102021Z 21012KT 32/12 A3022 RMK A01 T03180115  RH  029%=      5-min Rain = 0
KAD1 102022Z 20009KT 31/11 A3022 RMK A01 T03110114  RH  030%=      5-min Rain = 0
KAD1 102023Z 17010KT 31/11 A3022 RMK A01 T03070114  RH  031%=      5-min Rain = 0
KAD1 102024Z 19008KT 31/11 A3022 RMK A01 T03060114  RH  031%=      5-min Rain = 0
KAD1 102025Z 17011KT 31/11 A3022 RMK A01 T03050114  RH  031%=      5-min Rain = 0
KAD1 102026Z 18007KT 31/11 A3022 RMK A01 T03050114  RH  031%=      5-min Rain = 0
KAD1 102027Z 19004KT 30/11 A3022 RMK A01 T03040112  RH  031%=      5-min Rain = 0
KAD1 102028Z 17005KT 30/12 A3022 RMK A01 T03030115  RH  031%=      5-min Rain = 0
KAD1 102029Z 18005KT 31/12 A3022 RMK A01 T03060116  RH  031%=      5-min Rain = 0
KAD1 102030Z 17007KT 31/12 A3021 RMK A01 T03090116  RH  031%=      5-min Rain = 0
KAD1 102031Z 13007KT 31/12 A3021 RMK A01 T03120117  RH  030%=      5-min Rain = 0
KAD1 102032Z 12003KT 31/11 A3021 RMK A01 T03110113  RH  030%=      5-min Rain = 0
KAD1 102033Z 14002KT 31/11 A3021 RMK A01 T03070111  RH  030%=      5-min Rain = 0
KAD1 102034Z 15004KT 31/11 A3021 RMK A01 T03060113  RH  030%=      5-min Rain = 0
KAD1 102035Z 15002KT 31/11 A3021 RMK A01 T03090112  RH  030%=      5-min Rain = 0
KAD1 102036Z 17004KT 31/12 A3021 RMK A01 T03100115  RH  030%=      5-min Rain = 0
KAD1 102037Z 19007KT 31/12 A3021 RMK A01 T03120115  RH  030%=      5-min Rain = 0
KAD1 102038Z 17013G20KT 32/12 A3021 RMK A01 T03150116  RH  030%=      5-min Rain = 0
KAD1 102039Z 16012KT 32/12 A3021 RMK A01 T03190118  RH  029%=      5-min Rain = 0
KAD1 102040Z 13013KT 32/12 A3021 RMK A01 T03210115  RH  028%=      5-min Rain = 0
KAD1 102041Z 12010KT 32/11 A3021 RMK A01 T03200113  RH  028%=      5-min Rain = 0
KAD1 102042Z 12007KT 32/11 A3021 RMK A01 T03170112  RH  028%=      5-min Rain = 0
KAD1 102043Z 12009KT 32/11 A3021 RMK A01 T03150112  RH  029%=      5-min Rain = 0
KAD1 102044Z 14008KT 32/11 A3021 RMK A01 T03160110  RH  028%=      5-min Rain = 0
KAD1 102045Z 13009G15KT 32/11 A3021 RMK A01 T03150110  RH  028%=      5-min Rain = 0
KAD1 102046Z 16012KT 32/11 A3021 RMK A01 T03160111  RH  028%=      5-min Rain = 0
KAD1 102047Z 16006KT 32/11 A302 RMK A01 T03160111  RH  028%=      5-min Rain = 0
KAD1 102048Z 16011KT 32/12 A302 RMK A01 T03150118  RH  030%=      5-min Rain = 0
KAD1 102049Z 15013KT 32/12 A302 RMK A01 T03150115  RH  029%=      5-min Rain = 0
KAD1 102050Z 15013KT 32/11 A302 RMK A01 T03170113  RH  029%=      5-min Rain = 0
KAD1 102051Z 15009KT 32/11 A302 RMK A01 T03170114  RH  029%=      5-min Rain = 0
KAD1 102052Z 15009KT 32/11 A302 RMK A01 T03160113  RH  029%=      5-min Rain = 0
KAD1 102053Z 14008KT 31/11 A302 RMK A01 T03140114  RH  029%=      5-min Rain = 0
KAD1 102054Z 15012KT 31/11 A302 RMK A01 T03140114  RH  029%=      5-min Rain = 0
KAD1 102055Z 15007G12KT 32/11 A302 RMK A01 T03150112  RH  029%=      5-min Rain = 0
KAD1 102056Z 15009KT 32/11 A302 RMK A01 T03160113  RH  029%=      5-min Rain = 0
KAD1 102057Z 16006KT 32/11 A302 RMK A01 T03180112  RH  028%=      5-min Rain = 0
KAD1 102058Z 18012KT 32/11 A302 RMK A01 T03170113  RH  029%=      5-min Rain = 0
KAD1 102059Z 18011KT 32/11 A302 RMK A01 T03200114  RH  028%=      5-min Rain = 0
KAD1 102100Z 17011KT 32/12 A302 RMK A01 T03200115  RH  028%=      5-min Rain = 0
KAD1 102101Z 19009KT 32/11 A302 RMK A01 T03190113  RH  028%=      5-min Rain = 0
KAD1 102102Z 16010KT 32/12 A302 RMK A01 T03160115  RH  029%=      5-min Rain = 0
KAD1 102103Z 17008KT 32/11 A302 RMK A01 T03170113  RH  029%=      5-min Rain = 0
KAD1 102104Z 19007KT 32/11 A3019 RMK A01 T03160111  RH  028%=      5-min Rain = 0
KAD1 102105Z 15007KT 32/11 A3019 RMK A01 T03180111  RH  028%=      5-min Rain = 0
KAD1 102106Z 15004KT 32/11 A3019 RMK A01 T03160107  RH  028%=      5-min Rain = 0
KAD1 102107Z 17006KT 31/11 A3019 RMK A01 T03120111  RH  029%=      5-min Rain = 0
KAD1 102108Z 16011KT 31/11 A3019 RMK A01 T03110112  RH  029%=      5-min Rain = 0
KAD1 102109Z 15009KT 31/11 A3019 RMK A01 T03090113  RH  030%=      5-min Rain = 0
KAD1 102110Z 14007KT 31/11 A3019 RMK A01 T03060112  RH  030%=      5-min Rain = 0
KAD1 102111Z 16009KT 30/11 A3019 RMK A01 T03040114  RH  031%=      5-min Rain = 0
KAD1 102112Z 16012KT 30/12 A3019 RMK A01 T03040115  RH  031%=      5-min Rain = 0
KAD1 102113Z 16010KT 31/12 A3019 RMK A01 T03070117  RH  031%=      5-min Rain = 0
KAD1 102114Z 15011KT 31/12 A3019 RMK A01 T03120118  RH  030%=      5-min Rain = 0
KAD1 102115Z 14007KT 31/11 A3019 RMK A01 T03140113  RH  029%=      5-min Rain = 0
KAD1 102116Z 14008KT 32/11 A3019 RMK A01 T03150113  RH  029%=      5-min Rain = 0
KAD1 102117Z 16008KT 32/11 A3019 RMK A01 T03150114  RH  029%=      5-min Rain = 0
KAD1 102118Z 15007KT 31/11 A3019 RMK A01 T03120113  RH  029%=      5-min Rain = 0
KAD1 102119Z 15008KT 31/11 A3019 RMK A01 T03100113  RH  030%=      5-min Rain = 0
KAD1 102120Z 15007KT 31/11 A3019 RMK A01 T03080109  RH  029%=      5-min Rain = 0
KAD1 102121Z 19010KT 31/11 A3019 RMK A01 T03070109  RH  030%=      5-min Rain = 0
KAD1 102122Z 19006KT 31/11 A3019 RMK A01 T03060107  RH  029%=      5-min Rain = 0
KAD1 102123Z 14008KT 31/11 A3019 RMK A01 T03050108  RH  030%=      5-min Rain = 0
KAD1 102124Z 16004KT 31/11 A3019 RMK A01 T03070109  RH  029%=      5-min Rain = 0
KAD1 102125Z 16005KT 31/11 A3019 RMK A01 T03090110  RH  029%=      5-min Rain = 0
KAD1 102126Z 17005KT 31/11 A3018 RMK A01 T03120111  RH  029%=      5-min Rain = 0
KAD1 102127Z 16003KT 31/11 A3018 RMK A01 T03140109  RH  028%=      5-min Rain = 0
KAD1 102128Z 16003KT 31/11 A3018 RMK A01 T03140109  RH  028%=      5-min Rain = 0
KAD1 102129Z 16006G15KT 32/11 A3018 RMK A01 T03160113  RH  029%=      5-min Rain = 0
KAD1 102130Z 18007G12KT 32/11 A3018 RMK A01 T03190112  RH  028%=      5-min Rain = 0
KAD1 102131Z 20007G13KT 32/11 A3018 RMK A01 T03180110  RH  028%=      5-min Rain = 0
KAD1 102132Z 18014KT 32/11 A3018 RMK A01 T03200113  RH  028%=      5-min Rain = 0
KAD1 102133Z 19014KT 33/11 A3018 RMK A01 T03250111  RH  027%=      5-min Rain = 0
KAD1 102134Z 19013KT 32/11 A3018 RMK A01 T03240109  RH  027%=      5-min Rain = 0
KAD1 102135Z 19011KT 32/11 A3018 RMK A01 T03220109  RH  027%=      5-min Rain = 0
KAD1 102136Z 20008KT 32/11 A3018 RMK A01 T03230109  RH  027%=      5-min Rain = 0
KAD1 102137Z 18004KT 32/11 A3018 RMK A01 T03220108  RH  027%=      5-min Rain = 0
KAD1 102138Z 19005KT 32/11 A3018 RMK A01 T03220111  RH  027%=      5-min Rain = 0
KAD1 102139Z 18007KT 33/11 A3017 RMK A01 T03260111  RH  027%=      5-min Rain = 0
KAD1 102140Z 17007KT 33/12 A3017 RMK A01 T03290115  RH  027%=      5-min Rain = 0
KAD1 102141Z 19007KT 33/11 A3017 RMK A01 T03300112  RH  026%=      5-min Rain = 0
KAD1 102142Z 20009KT 33/11 A3017 RMK A01 T03290108  RH  026%=      5-min Rain = 0
KAD1 102143Z 18012KT 33/11 A3017 RMK A01 T03290108  RH  026%=      5-min Rain = 0
KAD1 102144Z 18010KT 33/11 A3017 RMK A01 T03270112  RH  027%=      5-min Rain = 0
KAD1 102145Z 17014KT 33/11 A3017 RMK A01 T03290113  RH  027%=      5-min Rain = 0
KAD1 102146Z 17013KT 33/11 A3017 RMK A01 T03290112  RH  027%=      5-min Rain = 0
KAD1 102147Z 17014G19KT 33/11 A3017 RMK A01 T03270112  RH  027%=      5-min Rain = 0
KAD1 102148Z 16016KT 33/11 A3017 RMK A01 T03270113  RH  027%=      5-min Rain = 0
KAD1 102149Z 17015G20KT 33/11 A3017 RMK A01 T03260114  RH  027%=      5-min Rain = 0
KAD1 102150Z 15011KT 32/11 A3017 RMK A01 T03230110  RH  027%=      5-min Rain = 0
KAD1 102151Z 17011KT 32/11 A3017 RMK A01 T03220111  RH  028%=      5-min Rain = 0
KAD1 102152Z 16013KT 32/11 A3017 RMK A01 T03220106  RH  027%=      5-min Rain = 0
KAD1 102153Z 16011KT 32/11 A3017 RMK A01 T03220105  RH  026%=      5-min Rain = 0
KAD1 102154Z 16006G11KT 32/11 A3017 RMK A01 T03200107  RH  027%=      5-min Rain = 0
KAD1 102155Z 16009KT 32/10 A3017 RMK A01 T03200104  RH  027%=      5-min Rain = 0
KAD1 102156Z 17010KT 32/10 A3017 RMK A01 T03210103  RH  026%=      5-min Rain = 0
KAD1 102157Z 16008KT 32/10 A3017 RMK A01 T03190103  RH  026%=      5-min Rain = 0
KAD1 102158Z 14008KT 32/10 A3017 RMK A01 T03190102  RH  026%=      5-min Rain = 0
KAD1 102159Z 14009KT 32/10 A3017 RMK A01 T03210104  RH  026%=      5-min Rain = 0
KAD1 102200Z 15009KT 33/10 A3016 RMK A01 T03260103  RH  025%=      5-min Rain = 0
KAD1 102201Z 15004KT 33/10 A3016 RMK A01 T03260102  RH  025%=      5-min Rain = 0
KAD1 102202Z 10003KT 32/10 A3016 RMK A01 T03210102  RH  026%=      5-min Rain = 0
KAD1 102203Z 13005KT 32/10 A3016 RMK A01 T03210103  RH  026%=      5-min Rain = 0
KAD1 102204Z 16009KT 32/11 A3016 RMK A01 T03200106  RH  027%=      5-min Rain = 0
KAD1 102205Z 16015KT 32/11 A3016 RMK A01 T03240110  RH  027%=      5-min Rain = 0
KAD1 102206Z 16014KT 32/11 A3016 RMK A01 T03240112  RH  027%=      5-min Rain = 0
KAD1 102207Z 16015KT 32/11 A3016 RMK A01 T03210109  RH  027%=      5-min Rain = 0
KAD1 102208Z 16012KT 32/11 A3016 RMK A01 T03200106  RH  027%=      5-min Rain = 0
KAD1 102209Z 15011KT 32/10 A3016 RMK A01 T03190104  RH  027%=      5-min Rain = 0
KAD1 102210Z 14012KT 32/11 A3016 RMK A01 T03200108  RH  027%=      5-min Rain = 0
KAD1 102211Z 15013KT 32/11 A3016 RMK A01 T03220107  RH  027%=      5-min Rain = 0
KAD1 102212Z 15013KT 32/11 A3016 RMK A01 T03220107  RH  027%=      5-min Rain = 0
KAD1 102213Z 17012KT 32/11 A3016 RMK A01 T03240112  RH  027%=      5-min Rain = 0
KAD1 102214Z 17011KT 33/11 A3016 RMK A01 T03270105  RH  026%=      5-min Rain = 0
KAD1 102215Z 19011KT 33/10 A3016 RMK A01 T03250103  RH  026%=      5-min Rain = 0
KAD1 102216Z 20008KT 33/10 A3016 RMK A01 T03250102  RH  025%=      5-min Rain = 0
KAD1 102217Z 19012KT 32/10 A3016 RMK A01 T03230104  RH  026%=      5-min Rain = 0
KAD1 102218Z 20010G17KT 33/11 A3016 RMK A01 T03250107  RH  026%=      5-min Rain = 0
KAD1 102219Z 19013KT 33/11 A3016 RMK A01 T03290106  RH  026%=      5-min Rain = 0
KAD1 102220Z 19013KT 33/10 A3016 RMK A01 T03270102  RH  025%=      5-min Rain = 0
KAD1 102221Z 18012KT 32/10 A3016 RMK A01 T03230102  RH  026%=      5-min Rain = 0
KAD1 102222Z 19008KT 32/10 A3016 RMK A01 T03240100  RH  025%=      5-min Rain = 0
KAD1 102223Z 19008KT 32/10 A3016 RMK A01 T03210100  RH  026%=      5-min Rain = 0
KAD1 102224Z 18006KT 32/10 A3016 RMK A01 T03220099  RH  025%=      5-min Rain = 0
KAD1 102225Z 21008KT 32/10 A3016 RMK A01 T03220101  RH  026%=      5-min Rain = 0
KAD1 102226Z 22007KT 32/10 A3016 RMK A01 T03220100  RH  025%=      5-min Rain = 0
KAD1 102227Z 19009KT 32/10 A3015 RMK A01 T03210102  RH  026%=      5-min Rain = 0
KAD1 102228Z 17006KT 32/10 A3015 RMK A01 T03200102  RH  026%=      5-min Rain = 0
KAD1 102229Z 18009KT 32/11 A3015 RMK A01 T03210107  RH  027%=      5-min Rain = 0
KAD1 102230Z 16011KT 32/11 A3015 RMK A01 T03230105  RH  026%=      5-min Rain = 0
KAD1 102231Z 15009KT 32/11 A3015 RMK A01 T03210106  RH  027%=      5-min Rain = 0
KAD1 102232Z 16010KT 32/11 A3015 RMK A01 T03190108  RH  027%=      5-min Rain = 0
KAD1 102233Z 15014KT 32/11 A3015 RMK A01 T03230110  RH  027%=      5-min Rain = 0
KAD1 102234Z 15014KT 33/11 A3015 RMK A01 T03250105  RH  026%=      5-min Rain = 0
KAD1 102235Z 18011KT 32/11 A3015 RMK A01 T03240105  RH  026%=      5-min Rain = 0
KAD1 102236Z 19010KT 32/10 A3015 RMK A01 T03230099  RH  025%=      5-min Rain = 0
KAD1 102237Z 19009KT 32/10 A3015 RMK A01 T03210099  RH  026%=      5-min Rain = 0
KAD1 102238Z 19008KT 32/10 A3015 RMK A01 T03190098  RH  026%=      5-min Rain = 0
KAD1 102239Z 18012G17KT 32/10 A3015 RMK A01 T03180101  RH  026%=      5-min Rain = 0
KAD1 102240Z 18015KT 32/10 A3015 RMK A01 T03220102  RH  026%=      5-min Rain = 0
KAD1 102241Z 19011KT 32/10 A3015 RMK A01 T03220101  RH  026%=      5-min Rain = 0
KAD1 102242Z 19009KT 32/10 A3015 RMK A01 T03220100  RH  026%=      5-min Rain = 0
KAD1 102243Z 19007KT 32/10 A3015 RMK A01 T03210101  RH  026%=      5-min Rain = 0
KAD1 102244Z 19010KT 32/10 A3015 RMK A01 T03220102  RH  026%=      5-min Rain = 0
KAD1 102245Z 18013KT 32/10 A3015 RMK A01 T03230102  RH  026%=      5-min Rain = 0
KAD1 102246Z 19012KT 32/10 A3015 RMK A01 T03230101  RH  026%=      5-min Rain = 0
KAD1 102247Z 18010KT 32/10 A3015 RMK A01 T03230100  RH  025%=      5-min Rain = 0
KAD1 102248Z 18006KT 32/10 A3015 RMK A01 T03230102  RH  026%=      5-min Rain = 0
KAD1 102249Z 15007KT 32/10 A3015 RMK A01 T03230103  RH  026%=      5-min Rain = 0
KAD1 102250Z 18005KT 32/10 A3015 RMK A01 T03210102  RH  026%=      5-min Rain = 0
KAD1 102251Z 19006G11KT 32/10 A3015 RMK A01 T03210103  RH  026%=      5-min Rain = 0
KAD1 102252Z 21009KT 32/10 A3015 RMK A01 T03230101  RH  026%=      5-min Rain = 0
KAD1 102253Z 22008KT 32/10 A3015 RMK A01 T03220100  RH  025%=      5-min Rain = 0
KAD1 102254Z 20008KT 32/10 A3015 RMK A01 T03210099  RH  025%=      5-min Rain = 0
KAD1 102255Z 21008KT 32/10 A3015 RMK A01 T03220097  RH  025%=      5-min Rain = 0
KAD1 102256Z 22007KT 32/10 A3015 RMK A01 T03220097  RH  025%=      5-min Rain = 0
KAD1 102257Z 22008KT 32/10 A3015 RMK A01 T03220099  RH  025%=      5-min Rain = 0
KAD1 102258Z 20011KT 32/10 A3015 RMK A01 T03230099  RH  025%=      5-min Rain = 0
KAD1 102259Z 20008G14KT 32/10 A3015 RMK A01 T03220099  RH  025%=      5-min Rain = 0
KAD1 102300Z 19008KT 32/10 A3015 RMK A01 T03210101  RH  026%=      5-min Rain = 0
KAD1 102301Z 19008G14KT 32/10 A3015 RMK A01 T03210101  RH  026%=      5-min Rain = 0
KAD1 102302Z 18014KT 32/10 A3014 RMK A01 T03230102  RH  026%=      5-min Rain = 0
KAD1 102303Z 19014KT 32/10 A3014 RMK A01 T03240099  RH  025%=      5-min Rain = 0
KAD1 102304Z 19009KT 32/10 A3015 RMK A01 T03230098  RH  025%=      5-min Rain = 0
KAD1 102305Z 19009KT 32/10 A3014 RMK A01 T03200098  RH  025%=      5-min Rain = 0
KAD1 102306Z 19009KT 32/10 A3014 RMK A01 T03200100  RH  026%=      5-min Rain = 0
KAD1 102307Z 19009KT 32/10 A3014 RMK A01 T03240100  RH  025%=      5-min Rain = 0
KAD1 102308Z 16010KT 33/10 A3014 RMK A01 T03250101  RH  025%=      5-min Rain = 0
KAD1 102309Z 16011KT 32/10 A3014 RMK A01 T03230102  RH  026%=      5-min Rain = 0
KAD1 102310Z 19008KT 32/10 A3014 RMK A01 T03210097  RH  025%=      5-min Rain = 0
KAD1 102311Z 16008G13KT 32/10 A3014 RMK A01 T03200096  RH  025%=      5-min Rain = 0
KAD1 102312Z 14011KT 32/10 A3014 RMK A01 T03210097  RH  025%=      5-min Rain = 0
KAD1 102313Z 16010KT 32/10 A3014 RMK A01 T03220099  RH  025%=      5-min Rain = 0
KAD1 102314Z 15012KT 32/10 A3014 RMK A01 T03220099  RH  025%=      5-min Rain = 0
KAD1 102315Z 15012KT 32/10 A3014 RMK A01 T03220096  RH  025%=      5-min Rain = 0
KAD1 102316Z 15013G18KT 32/10 A3014 RMK A01 T03210095  RH  025%=      5-min Rain = 0
KAD1 102317Z 16015KT 32/10 A3014 RMK A01 T03210097  RH  025%=      5-min Rain = 0
KAD1 102318Z 16017KT 32/10 A3014 RMK A01 T03210098  RH  025%=      5-min Rain = 0
KAD1 102319Z 16014KT 32/10 A3014 RMK A01 T03220095  RH  025%=      5-min Rain = 0
KAD1 102320Z 15013KT 32/10 A3014 RMK A01 T03210096  RH  025%=      5-min Rain = 0
KAD1 102321Z 15012KT 32/09 A3014 RMK A01 T03200094  RH  025%=      5-min Rain = 0
KAD1 102322Z 16013KT 32/10 A3014 RMK A01 T03190095  RH  025%=      5-min Rain = 0
KAD1 102323Z 16011KT 32/10 A3014 RMK A01 T03170095  RH  025%=      5-min Rain = 0
KAD1 102324Z 15010KT 32/10 A3014 RMK A01 T03170096  RH  026%=      5-min Rain = 0
KAD1 102325Z 15011KT 32/09 A3014 RMK A01 T03170092  RH  025%=      5-min Rain = 0
KAD1 102326Z 15010KT 32/09 A3014 RMK A01 T03180090  RH  024%=      5-min Rain = 0
KAD1 102327Z 15010KT 32/09 A3014 RMK A01 T03180093  RH  025%=      5-min Rain = 0
KAD1 102328Z 15008KT 32/09 A3014 RMK A01 T03180092  RH  025%=      5-min Rain = 0
KAD1 102329Z 16007KT 32/10 A3014 RMK A01 T03180096  RH  025%=      5-min Rain = 0
KAD1 102330Z 18010KT 32/09 A3014 RMK A01 T03210093  RH  024%=      5-min Rain = 0
KAD1 102331Z 17008KT 32/09 A3014 RMK A01 T03210091  RH  024%=      5-min Rain = 0
KAD1 102332Z 17009KT 32/09 A3014 RMK A01 T03200092  RH  024%=      5-min Rain = 0
KAD1 102333Z 15007KT 32/09 A3014 RMK A01 T03200090  RH  024%=      5-min Rain = 0
KAD1 102334Z 16013G18KT 32/09 A3014 RMK A01 T03200092  RH  024%=      5-min Rain = 0
KAD1 102335Z 17015KT 32/09 A3014 RMK A01 T03200092  RH  024%=      5-min Rain = 0
KAD1 102336Z 16014KT 32/09 A3013 RMK A01 T03210093  RH  024%=      5-min Rain = 0
KAD1 102337Z 17015KT 32/09 A3014 RMK A01 T03210092  RH  024%=      5-min Rain = 0
KAD1 102338Z 16010KT 32/09 A3014 RMK A01 T03210089  RH  024%=      5-min Rain = 0
KAD1 102339Z 17013KT 32/09 A3013 RMK A01 T03200092  RH  024%=      5-min Rain = 0
KAD1 102340Z 18013KT 32/09 A3013 RMK A01 T03190089  RH  024%=      5-min Rain = 0
KAD1 102341Z 17014KT 32/09 A3013 RMK A01 T03210089  RH  024%=      5-min Rain = 0
KAD1 102342Z 17014KT 32/09 A3013 RMK A01 T03220090  RH  024%=      5-min Rain = 0
KAD1 102343Z 17015KT 32/09 A3013 RMK A01 T03220088  RH  023%=      5-min Rain = 0
KAD1 102344Z 17013KT 32/09 A3013 RMK A01 T03220087  RH  023%=      5-min Rain = 0
KAD1 102345Z 16011KT 32/09 A3013 RMK A01 T03190087  RH  024%=      5-min Rain = 0
KAD1 102346Z 15014KT 32/09 A3013 RMK A01 T03180089  RH  024%=      5-min Rain = 0
KAD1 102347Z 15012KT 32/09 A3013 RMK A01 T03180086  RH  024%=      5-min Rain = 0
KAD1 102348Z 15012KT 32/09 A3013 RMK A01 T03190085  RH  023%=      5-min Rain = 0
KAD1 102349Z 17011KT 32/09 A3013 RMK A01 T03180086  RH  024%=      5-min Rain = 0
KAD1 102350Z 18010KT 32/08 A3013 RMK A01 T03190083  RH  023%=      5-min Rain = 0
KAD1 102351Z 18010KT 32/08 A3013 RMK A01 T03180082  RH  023%=      5-min Rain = 0
KAD1 102352Z 17010KT 32/08 A3013 RMK A01 T03180083  RH  023%=      5-min Rain = 0
KAD1 102353Z 17013KT 32/09 A3013 RMK A01 T03200085  RH  023%=      5-min Rain = 0
KAD1 102354Z 17012KT 32/08 A3013 RMK A01 T03210084  RH  023%=      5-min Rain = 0
KAD1 102355Z 17011KT 32/08 A3013 RMK A01 T03190082  RH  023%=      5-min Rain = 0
KAD1 102356Z 17009KT 32/08 A3013 RMK A01 T03170083  RH  023%=      5-min Rain = 0
KAD1 102357Z 17010KT 32/08 A3013 RMK A01 T03160082  RH  023%=      5-min Rain = 0
KAD1 102358Z 18011KT 32/08 A3013 RMK A01 T03150080  RH  023%=      5-min Rain = 0
KAD1 102359Z 19009KT 32/08 A3013 RMK A01 T03150079  RH  023%=      5-min Rain = 0
KAD1 110000Z 19008KT 32/08 A3013 RMK A01 T03150080  RH  023%=      5-min Rain = 0
KAD1 110001Z 19009KT 32/08 A3013 RMK A01 T03160081  RH  023%=      5-min Rain = 0
KAD1 110002Z 19010KT 32/08 A3013 RMK A01 T03150081  RH  023%=      5-min Rain = 0
KAD1 110003Z 19009KT 32/08 A3013 RMK A01 T03150084  RH  024%=      5-min Rain = 0
KAD1 110004Z 18010KT 32/08 A3013 RMK A01 T03180082  RH  023%=      5-min Rain = 0
KAD1 110005Z 17010KT 32/08 A3013 RMK A01 T03210082  RH  023%=      5-min Rain = 0
KAD1 110006Z 17011KT 32/08 A3013 RMK A01 T03210082  RH  023%=      5-min Rain = 0
KAD1 110007Z 18010KT 32/08 A3013 RMK A01 T03200079  RH  022%=      5-min Rain = 0
KAD1 110008Z 19010KT 32/08 A3013 RMK A01 T03210077  RH  022%=      5-min Rain = 0
KAD1 110009Z 17009G14KT 32/08 A3013 RMK A01 T03190078  RH  022%=      5-min Rain = 0
KAD1 110010Z 15012KT 32/08 A3013 RMK A01 T03190078  RH  022%=      5-min Rain = 0
KAD1 110011Z 15012KT 32/08 A3013 RMK A01 T03180077  RH  022%=      5-min Rain = 0
KAD1 110012Z 14011KT 32/08 A3013 RMK A01 T03170076  RH  022%=      5-min Rain = 0
KAD1 110013Z 15012KT 32/07 A3013 RMK A01 T03170073  RH  022%=      5-min Rain = 0
KAD1 110014Z 15012KT 32/07 A3013 RMK A01 T03170074  RH  022%=      5-min Rain = 0
KAD1 110015Z 16012KT 32/08 A3013 RMK A01 T03170076  RH  022%=      5-min Rain = 0
KAD1 110016Z 17013KT 32/08 A3013 RMK A01 T03170079  RH  023%=      5-min Rain = 0
KAD1 110017Z 16011KT 32/08 A3013 RMK A01 T03170076  RH  022%=      5-min Rain = 0
KAD1 110018Z 16010KT 32/08 A3013 RMK A01 T03160079  RH  023%=      5-min Rain = 0
KAD1 110019Z 15012KT 32/08 A3013 RMK A01 T03150078  RH  023%=      5-min Rain = 0
KAD1 110020Z 15011KT 32/07 A3013 RMK A01 T03150074  RH  022%=      5-min Rain = 0
KAD1 110021Z 15011KT 32/08 A3013 RMK A01 T03160077  RH  023%=      5-min Rain = 0
KAD1 110022Z 16012KT 32/08 A3013 RMK A01 T03170075  RH  022%=      5-min Rain = 0
KAD1 110023Z 16011KT 32/08 A3013 RMK A01 T03170076  RH  022%=      5-min Rain = 0
KAD1 110024Z 17010KT 32/08 A3013 RMK A01 T03150079  RH  023%=      5-min Rain = 0
KAD1 110025Z 17008KT 31/08 A3013 RMK A01 T03140078  RH  023%=      5-min Rain = 0
KAD1 110026Z 16009KT 32/08 A3013 RMK A01 T03150078  RH  023%=      5-min Rain = 0
KAD1 110027Z 15008KT 32/08 A3013 RMK A01 T03150076  RH  023%=      5-min Rain = 0
KAD1 110028Z 12008KT 32/08 A3013 RMK A01 T03150076  RH  022%=      5-min Rain = 0
KAD1 110029Z 13007KT 32/08 A3013 RMK A01 T03150075  RH  022%=      5-min Rain = 0
KAD1 110030Z 14009G14KT 31/07 A3013 RMK A01 T03140074  RH  022%=      5-min Rain = 0
KAD1 110031Z 17013KT 31/08 A3013 RMK A01 T03140079  RH  023%=      5-min Rain = 0
KAD1 110032Z 17014KT 32/08 A3013 RMK A01 T03160082  RH  023%=      5-min Rain = 0
KAD1 110033Z 17013KT 32/08 A3013 RMK A01 T03150083  RH  024%=      5-min Rain = 0
KAD1 110034Z 16012KT 31/08 A3013 RMK A01 T03140084  RH  024%=      5-min Rain = 0
KAD1 110035Z 15011KT 31/09 A3013 RMK A01 T03140085  RH  024%=      5-min Rain = 0
KAD1 110036Z 16010KT 31/09 A3013 RMK A01 T03130087  RH  025%=      5-min Rain = 0
KAD1 110037Z 16012KT 31/09 A3013 RMK A01 T03130086  RH  024%=      5-min Rain = 0
KAD1 110038Z 16012KT 31/09 A3013 RMK A01 T03130085  RH  024%=      5-min Rain = 0
KAD1 110039Z 16011KT 31/08 A3013 RMK A01 T03110083  RH  024%=      5-min Rain = 0
KAD1 110040Z 17010KT 31/08 A3013 RMK A01 T03100084  RH  024%=      5-min Rain = 0
KAD1 110041Z 16010KT 31/08 A3013 RMK A01 T03100083  RH  024%=      5-min Rain = 0
KAD1 110042Z 15008KT 31/08 A3013 RMK A01 T03110083  RH  024%=      5-min Rain = 0
KAD1 110043Z 17010G15KT 31/09 A3013 RMK A01 T03110086  RH  025%=      5-min Rain = 0
KAD1 110044Z 17015KT 31/09 A3013 RMK A01 T03110087  RH  025%=      5-min Rain = 0
KAD1 110045Z 17012KT 31/08 A3013 RMK A01 T03110084  RH  024%=      5-min Rain = 0
KAD1 110046Z 16010KT 31/09 A3013 RMK A01 T03110086  RH  025%=      5-min Rain = 0
KAD1 110047Z 16013KT 31/09 A3013 RMK A01 T03110089  RH  025%=      5-min Rain = 0
KAD1 110048Z 17014KT 31/09 A3012 RMK A01 T03110089  RH  025%=      5-min Rain = 0
KAD1 110049Z 16013KT 31/09 A3012 RMK A01 T03110087  RH  025%=      5-min Rain = 0
KAD1 110050Z 15011KT 31/09 A3012 RMK A01 T03100088  RH  025%=      5-min Rain = 0
KAD1 110051Z 15012KT 31/09 A3012 RMK A01 T03100085  RH  025%=      5-min Rain = 0
KAD1 110052Z 14011KT 31/08 A3012 RMK A01 T03110083  RH  024%=      5-min Rain = 0
KAD1 110053Z 15012KT 31/08 A3012 RMK A01 T03110083  RH  024%=      5-min Rain = 0
KAD1 110054Z 15011KT 31/08 A3012 RMK A01 T03110082  RH  024%=      5-min Rain = 0
KAD1 110055Z 16012KT 31/08 A3013 RMK A01 T03110084  RH  024%=      5-min Rain = 0
KAD1 110056Z 17011KT 31/09 A3012 RMK A01 T03090085  RH  025%=      5-min Rain = 0
KAD1 110057Z 16012KT 31/08 A3012 RMK A01 T03090084  RH  025%=      5-min Rain = 0
KAD1 110058Z 15011KT 31/09 A3013 RMK A01 T03090086  RH  025%=      5-min Rain = 0
KAD1 110059Z 16011KT 31/09 A3012 RMK A01 T03080085  RH  025%=      5-min Rain = 0
KAD1 110100Z 16011KT 31/09 A3013 RMK A01 T03080086  RH  025%=      5-min Rain = 0
KAD1 110101Z 16012KT 31/09 A3013 RMK A01 T03070087  RH  025%=      5-min Rain = 0
KAD1 110102Z 16012KT 31/09 A3013 RMK A01 T03060086  RH  025%=      5-min Rain = 0
KAD1 110103Z 16012KT 31/09 A3013 RMK A01 T03060087  RH  026%=      5-min Rain = 0
KAD1 110104Z 16012KT 31/09 A3013 RMK A01 T03050086  RH  026%=      5-min Rain = 0
KAD1 110105Z 17010KT 31/08 A3013 RMK A01 T03050084  RH  025%=      5-min Rain = 0
KAD1 110106Z 17010KT 31/08 A3013 RMK A01 T03060084  RH  025%=      5-min Rain = 0
KAD1 110107Z 17010KT 31/08 A3013 RMK A01 T03060083  RH  025%=      5-min Rain = 0
KAD1 110108Z 16010KT 31/08 A3013 RMK A01 T03060083  RH  025%=      5-min Rain = 0
KAD1 110109Z 17012KT 31/09 A3013 RMK A01 T03060086  RH  025%=      5-min Rain = 0
KAD1 110110Z 17012KT 31/09 A3013 RMK A01 T03060086  RH  025%=      5-min Rain = 0
KAD1 110111Z 17012KT 31/09 A3013 RMK A01 T03060088  RH  026%=      5-min Rain = 0
KAD1 110112Z 17011KT 31/09 A3013 RMK A01 T03060090  RH  026%=      5-min Rain = 0
KAD1 110113Z 17011KT 31/09 A3013 RMK A01 T03050090  RH  026%=      5-min Rain = 0
KAD1 110114Z 17011KT 31/09 A3013 RMK A01 T03050089  RH  026%=      5-min Rain = 0
KAD1 110115Z 17011KT 31/09 A3013 RMK A01 T03050089  RH  026%=      5-min Rain = 0
KAD1 110116Z 16011KT 31/09 A3013 RMK A01 T03050090  RH  026%=      5-min Rain = 0
KAD1 110117Z 16012KT 30/09 A3013 RMK A01 T03040092  RH  027%=      5-min Rain = 0
KAD1 110118Z 16013KT 30/09 A3013 RMK A01 T03040094  RH  027%=      5-min Rain = 0
KAD1 110119Z 17012KT 30/09 A3013 RMK A01 T03030092  RH  027%=      5-min Rain = 0
KAD1 110120Z 17011KT 30/09 A3013 RMK A01 T03030091  RH  027%=      5-min Rain = 0
KAD1 110121Z 17010KT 30/09 A3013 RMK A01 T03030092  RH  027%=      5-min Rain = 0
KAD1 110122Z 17011KT 30/09 A3013 RMK A01 T03030090  RH  027%=      5-min Rain = 0
KAD1 110123Z 17010KT 30/09 A3013 RMK A01 T03030090  RH  027%=      5-min Rain = 0
KAD1 110124Z 16009KT 30/09 A3013 RMK A01 T03030093  RH  027%=      5-min Rain = 0
KAD1 110125Z 16013KT 30/10 A3013 RMK A01 T03020097  RH  028%=      5-min Rain = 0
KAD1 110126Z 16012KT 30/10 A3013 RMK A01 T03000100  RH  029%=      5-min Rain = 0
KAD1 110127Z 16013KT 30/10 A3013 RMK A01 T02990102  RH  030%=      5-min Rain = 0
KAD1 110128Z 16013KT 30/10 A3013 RMK A01 T02980104  RH  030%=      5-min Rain = 0
KAD1 110129Z 16011KT 30/11 A3013 RMK A01 T02970105  RH  030%=      5-min Rain = 0
KAD1 110130Z 16010KT 30/11 A3013 RMK A01 T02970105  RH  030%=      5-min Rain = 0
KAD1 110131Z 16011KT 30/11 A3013 RMK A01 T02970105  RH  030%=      5-min Rain = 0
KAD1 110132Z 16011KT 30/11 A3013 RMK A01 T02960105  RH  031%=      5-min Rain = 0
KAD1 110133Z 17012KT 30/11 A3013 RMK A01 T02970106  RH  031%=      5-min Rain = 0
KAD1 110134Z 17012KT 30/11 A3013 RMK A01 T02970106  RH  031%=      5-min Rain = 0
KAD1 110135Z 17010KT 30/11 A3013 RMK A01 T02960105  RH  031%=      5-min Rain = 0
KAD1 110136Z 17011KT 30/11 A3013 RMK A01 T02960105  RH  031%=      5-min Rain = 0
KAD1 110137Z 17011KT 30/11 A3013 RMK A01 T02960105  RH  031%=      5-min Rain = 0
KAD1 110138Z 17010KT 30/10 A3013 RMK A01 T02960104  RH  031%=      5-min Rain = 0
KAD1 110139Z 16010KT 30/11 A3013 RMK A01 T02950105  RH  031%=      5-min Rain = 0
KAD1 110140Z 16010KT 29/11 A3014 RMK A01 T02940105  RH  031%=      5-min Rain = 0
KAD1 110141Z 16010KT 29/11 A3014 RMK A01 T02940105  RH  031%=      5-min Rain = 0
KAD1 110142Z 16010KT 29/11 A3014 RMK A01 T02930105  RH  031%=      5-min Rain = 0
KAD1 110143Z 17009KT 29/11 A3014 RMK A01 T02930106  RH  031%=      5-min Rain = 0
KAD1 110144Z 17011KT 29/11 A3014 RMK A01 T02920106  RH  031%=      5-min Rain = 0
KAD1 110145Z 16010KT 29/11 A3014 RMK A01 T02920106  RH  032%=      5-min Rain = 0
KAD1 110146Z 17010KT 29/11 A3014 RMK A01 T02920106  RH  032%=      5-min Rain = 0
KAD1 110147Z 16011KT 29/11 A3014 RMK A01 T02920107  RH  032%=      5-min Rain = 0
KAD1 110148Z 16010KT 29/11 A3014 RMK A01 T02910107  RH  032%=      5-min Rain = 0
KAD1 110149Z 16013KT 29/11 A3014 RMK A01 T02900107  RH  032%=      5-min Rain = 0
KAD1 110150Z 16013KT 29/11 A3014 RMK A01 T02900107  RH  032%=      5-min Rain = 0
KAD1 110151Z 16011KT 29/11 A3014 RMK A01 T02900107  RH  032%=      5-min Rain = 0
KAD1 110152Z 16010KT 29/11 A3014 RMK A01 T02900108  RH  032%=      5-min Rain = 0
KAD1 110153Z 16010KT 29/11 A3014 RMK A01 T02890108  RH  032%=      5-min Rain = 0
KAD1 110154Z 17011KT 29/11 A3014 RMK A01 T02880108  RH  033%=      5-min Rain = 0
KAD1 110155Z 17010KT 29/11 A3014 RMK A01 T02880108  RH  033%=      5-min Rain = 0
KAD1 110156Z 16010KT 29/11 A3014 RMK A01 T02870108  RH  033%=      5-min Rain = 0
KAD1 110157Z 17010KT 29/11 A3014 RMK A01 T02870108  RH  033%=      5-min Rain = 0
KAD1 110158Z 17010KT 29/11 A3014 RMK A01 T02860108  RH  033%=      5-min Rain = 0
KAD1 110159Z 17009KT 29/11 A3014 RMK A01 T02860108  RH  033%=      5-min Rain = 0
KAD1 110200Z 17009KT 29/11 A3014 RMK A01 T02850108  RH  033%=      5-min Rain = 0
KAD1 110201Z 17009KT 29/11 A3014 RMK A01 T02850109  RH  033%=      5-min Rain = 0
KAD1 110202Z 17009KT 29/11 A3014 RMK A01 T02850108  RH  033%=      5-min Rain = 0
KAD1 110203Z 17010KT 28/11 A3014 RMK A01 T02840109  RH  034%=      5-min Rain = 0
KAD1 110204Z 17010KT 28/11 A3015 RMK A01 T02840109  RH  034%=      5-min Rain = 0
KAD1 110205Z 17010KT 28/11 A3015 RMK A01 T02830109  RH  034%=      5-min Rain = 0
KAD1 110206Z 17009KT 28/11 A3015 RMK A01 T02830109  RH  034%=      5-min Rain = 0
KAD1 110207Z 17010KT 28/11 A3015 RMK A01 T02830110  RH  034%=      5-min Rain = 0
KAD1 110208Z 17009KT 28/11 A3015 RMK A01 T02820110  RH  034%=      5-min Rain = 0
KAD1 110209Z 17010KT 28/11 A3015 RMK A01 T02820110  RH  034%=      5-min Rain = 0
KAD1 110210Z 17009KT 28/11 A3015 RMK A01 T02820110  RH  034%=      5-min Rain = 0
KAD1 110211Z 17009KT 28/11 A3015 RMK A01 T02820111  RH  035%=      5-min Rain = 0
KAD1 110212Z 17010KT 28/11 A3015 RMK A01 T02810112  RH  035%=      5-min Rain = 0
KAD1 110213Z 17010KT 28/11 A3015 RMK A01 T02810112  RH  035%=      5-min Rain = 0
KAD1 110214Z 17011KT 28/11 A3015 RMK A01 T02800112  RH  035%=      5-min Rain = 0
KAD1 110215Z 17010KT 28/11 A3015 RMK A01 T02810113  RH  035%=      5-min Rain = 0
KAD1 110216Z 17010KT 28/11 A3015 RMK A01 T02800113  RH  035%=      5-min Rain = 0
KAD1 110217Z 17010KT 28/11 A3015 RMK A01 T02800114  RH  035%=      5-min Rain = 0
KAD1 110218Z 17010KT 28/11 A3015 RMK A01 T02800114  RH  036%=      5-min Rain = 0
KAD1 110219Z 17010KT 28/11 A3015 RMK A01 T02790114  RH  036%=      5-min Rain = 0
KAD1 110220Z 17010KT 28/11 A3015 RMK A01 T02780114  RH  036%=      5-min Rain = 0
KAD1 110221Z 17010KT 28/11 A3015 RMK A01 T02780114  RH  036%=      5-min Rain = 0
KAD1 110222Z 17009KT 28/11 A3015 RMK A01 T02770114  RH  036%=      5-min Rain = 0
KAD1 110223Z 17010KT 28/11 A3015 RMK A01 T02760114  RH  036%=      5-min Rain = 0
KAD1 110224Z 17010KT 28/12 A3015 RMK A01 T02760115  RH  037%=      5-min Rain = 0
KAD1 110225Z 17010KT 28/12 A3015 RMK A01 T02750115  RH  037%=      5-min Rain = 0
KAD1 110226Z 17010KT 28/12 A3015 RMK A01 T02750115  RH  037%=      5-min Rain = 0
KAD1 110227Z 17010KT 27/12 A3015 RMK A01 T02730115  RH  037%=      5-min Rain = 0
KAD1 110228Z 17010KT 27/12 A3015 RMK A01 T02730115  RH  037%=      5-min Rain = 0
KAD1 110229Z 17010KT 27/12 A3015 RMK A01 T02720115  RH  037%=      5-min Rain = 0
KAD1 110230Z 17010KT 27/11 A3015 RMK A01 T02720114  RH  037%=      5-min Rain = 0
KAD1 110231Z 17011KT 27/12 A3015 RMK A01 T02710115  RH  038%=      5-min Rain = 0
KAD1 110232Z 17010KT 27/12 A3015 RMK A01 T02710115  RH  038%=      5-min Rain = 0
KAD1 110233Z 17011KT 27/12 A3015 RMK A01 T02710115  RH  038%=      5-min Rain = 0
KAD1 110234Z 17010KT 27/12 A3015 RMK A01 T02700115  RH  038%=      5-min Rain = 0
KAD1 110235Z 17010KT 27/12 A3015 RMK A01 T02700116  RH  038%=      5-min Rain = 0
KAD1 110236Z 17010KT 27/12 A3015 RMK A01 T02700116  RH  038%=      5-min Rain = 0
KAD1 110237Z 17010KT 27/12 A3015 RMK A01 T02690116  RH  038%=      5-min Rain = 0
KAD1 110238Z 17011KT 27/12 A3015 RMK A01 T02690116  RH  039%=      5-min Rain = 0
KAD1 110239Z 17010KT 27/12 A3015 RMK A01 T02690117  RH  039%=      5-min Rain = 0
KAD1 110240Z 17010KT 27/12 A3015 RMK A01 T02680118  RH  039%=      5-min Rain = 0
KAD1 110241Z 17010KT 27/12 A3015 RMK A01 T02680118  RH  039%=      5-min Rain = 0
KAD1 110242Z 17011KT 27/12 A3015 RMK A01 T02670119  RH  040%=      5-min Rain = 0
KAD1 110243Z 17010KT 27/12 A3015 RMK A01 T02660119  RH  040%=      5-min Rain = 0
KAD1 110244Z 16012KT 27/12 A3015 RMK A01 T02660120  RH  040%=      5-min Rain = 0
KAD1 110245Z 17011KT 27/12 A3015 RMK A01 T02660121  RH  040%=      5-min Rain = 0
KAD1 110246Z 17011KT 27/12 A3015 RMK A01 T02660121  RH  041%=      5-min Rain = 0
KAD1 110247Z 16012KT 27/12 A3015 RMK A01 T02650122  RH  041%=      5-min Rain = 0
KAD1 110248Z 16012KT 27/12 A3015 RMK A01 T02650123  RH  041%=      5-min Rain = 0
KAD1 110249Z 17013KT 27/12 A3015 RMK A01 T02650124  RH  042%=      5-min Rain = 0
KAD1 110250Z 16011KT 27/13 A3016 RMK A01 T02650125  RH  042%=      5-min Rain = 0
KAD1 110251Z 16011KT 27/13 A3016 RMK A01 T02650126  RH  042%=      5-min Rain = 0
KAD1 110252Z 16011KT 26/13 A3016 RMK A01 T02640127  RH  042%=      5-min Rain = 0
KAD1 110253Z 16012KT 26/13 A3016 RMK A01 T02630127  RH  043%=      5-min Rain = 0
KAD1 110254Z 16012KT 26/13 A3016 RMK A01 T02630128  RH  043%=      5-min Rain = 0
KAD1 110255Z 16012KT 26/13 A3016 RMK A01 T02620129  RH  044%=      5-min Rain = 0
KAD1 110256Z 16012KT 26/13 A3016 RMK A01 T02620129  RH  044%=      5-min Rain = 0
KAD1 110257Z 16012KT 26/13 A3016 RMK A01 T02610129  RH  044%=      5-min Rain = 0
KAD1 110258Z 16011KT 26/13 A3016 RMK A01 T02610131  RH  044%=      5-min Rain = 0
KAD1 110259Z 16012KT 26/13 A3016 RMK A01 T02610130  RH  044%=      5-min Rain = 0
KAD1 110300Z 16013KT 26/13 A3016 RMK A01 T02600131  RH  045%=      5-min Rain = 0
KAD1 110301Z 16011KT 26/13 A3016 RMK A01 T02610132  RH  045%=      5-min Rain = 0
KAD1 110302Z 16012KT 26/13 A3016 RMK A01 T02600132  RH  045%=      5-min Rain = 0
KAD1 110303Z 16011KT 26/13 A3016 RMK A01 T02600133  RH  045%=      5-min Rain = 0
KAD1 110304Z 16011KT 26/13 A3016 RMK A01 T02590133  RH  046%=      5-min Rain = 0
KAD1 110305Z 16012KT 26/13 A3016 RMK A01 T02590134  RH  046%=      5-min Rain = 0
KAD1 110306Z 16012KT 26/14 A3016 RMK A01 T02590135  RH  046%=      5-min Rain = 0
KAD1 110307Z 16012KT 26/14 A3016 RMK A01 T02590135  RH  046%=      5-min Rain = 0
KAD1 110308Z 16011KT 26/14 A3016 RMK A01 T02590136  RH  047%=      5-min Rain = 0
KAD1 110309Z 16012KT 26/14 A3016 RMK A01 T02590136  RH  047%=      5-min Rain = 0
KAD1 110310Z 16012KT 26/14 A3016 RMK A01 T02590137  RH  047%=      5-min Rain = 0
KAD1 110311Z 16012KT 26/14 A3016 RMK A01 T02590137  RH  047%=      5-min Rain = 0
KAD1 110312Z 16012KT 26/14 A3016 RMK A01 T02590138  RH  047%=      5-min Rain = 0
KAD1 110313Z 16011KT 26/14 A3016 RMK A01 T02580138  RH  047%=      5-min Rain = 0
KAD1 110314Z 16012KT 26/14 A3016 RMK A01 T02580138  RH  047%=      5-min Rain = 0
KAD1 110315Z 16012KT 26/14 A3016 RMK A01 T02580138  RH  048%=      5-min Rain = 0
KAD1 110316Z 16013KT 26/14 A3016 RMK A01 T02580139  RH  048%=      5-min Rain = 0
KAD1 110317Z 17012KT 26/14 A3016 RMK A01 T02580139  RH  048%=      5-min Rain = 0
KAD1 110318Z 17012KT 26/14 A3016 RMK A01 T02580139  RH  048%=      5-min Rain = 0
KAD1 110319Z 17011KT 26/14 A3016 RMK A01 T02580139  RH  048%=      5-min Rain = 0
KAD1 110320Z 17012KT 26/14 A3017 RMK A01 T02580139  RH  048%=      5-min Rain = 0
KAD1 110321Z 17012KT 26/14 A3017 RMK A01 T02580139  RH  048%=      5-min Rain = 0
KAD1 110322Z 17013KT 26/14 A3017 RMK A01 T02580139  RH  048%=      5-min Rain = 0
KAD1 110323Z 17012KT 26/14 A3017 RMK A01 T02580139  RH  048%=      5-min Rain = 0
KAD1 110324Z 17012KT 26/14 A3017 RMK A01 T02570139  RH  048%=      5-min Rain = 0
KAD1 110325Z 17012KT 26/14 A3017 RMK A01 T02570139  RH  048%=      5-min Rain = 0
KAD1 110326Z 17012KT 26/14 A3017 RMK A01 T02570139  RH  048%=      5-min Rain = 0
KAD1 110327Z 17013KT 26/14 A3017 RMK A01 T02570139  RH  048%=      5-min Rain = 0
KAD1 110328Z 17012KT 26/14 A3017 RMK A01 T02570139  RH  048%=      5-min Rain = 0
KAD1 110329Z 17011KT 26/14 A3017 RMK A01 T02560140  RH  048%=      5-min Rain = 0
KAD1 110330Z 17011KT 26/14 A3017 RMK A01 T02560139  RH  048%=      5-min Rain = 0
KAD1 110331Z 17012KT 26/14 A3017 RMK A01 T02550139  RH  049%=      5-min Rain = 0
KAD1 110332Z 17012KT 26/14 A3017 RMK A01 T02550139  RH  049%=      5-min Rain = 0
KAD1 110333Z 16011KT 26/14 A3018 RMK A01 T02550140  RH  049%=      5-min Rain = 0
KAD1 110334Z 16011KT 26/14 A3018 RMK A01 T02550140  RH  049%=      5-min Rain = 0
KAD1 110335Z 16012KT 25/14 A3018 RMK A01 T02540140  RH  049%=      5-min Rain = 0
KAD1 110336Z 16012KT 25/14 A3018 RMK A01 T02540140  RH  049%=      5-min Rain = 0
KAD1 110337Z 15011KT 25/14 A3018 RMK A01 T02530141  RH  050%=      5-min Rain = 0
KAD1 110338Z 16011KT 25/14 A3018 RMK A01 T02520140  RH  050%=      5-min Rain = 0
KAD1 110339Z 16012KT 25/14 A3018 RMK A01 T02520141  RH  050%=      5-min Rain = 0
KAD1 110340Z 16013KT 25/14 A3018 RMK A01 T02510141  RH  050%=      5-min Rain = 0
KAD1 110341Z 16012KT 25/14 A3018 RMK A01 T02510141  RH  050%=      5-min Rain = 0
KAD1 110342Z 16012KT 25/14 A3018 RMK A01 T02500141  RH  051%=      5-min Rain = 0
KAD1 110343Z 16013KT 25/14 A3019 RMK A01 T02500141  RH  051%=      5-min Rain = 0
KAD1 110344Z 16013KT 25/14 A3019 RMK A01 T02500141  RH  051%=      5-min Rain = 0
KAD1 110345Z 16012KT 25/14 A3019 RMK A01 T02500141  RH  051%=      5-min Rain = 0
KAD1 110346Z 15012KT 25/14 A3019 RMK A01 T02490141  RH  051%=      5-min Rain = 0
KAD1 110347Z 16012KT 25/14 A3019 RMK A01 T02490141  RH  051%=      5-min Rain = 0
KAD1 110348Z 15011KT 25/14 A3019 RMK A01 T02490141  RH  051%=      5-min Rain = 0
KAD1 110349Z 15012KT 25/14 A3019 RMK A01 T02480140  RH  051%=      5-min Rain = 0
KAD1 110350Z 15012KT 25/14 A3019 RMK A01 T02480140  RH  051%=      5-min Rain = 0
KAD1 110351Z 15012KT 25/14 A3019 RMK A01 T02480140  RH  051%=      5-min Rain = 0
KAD1 110352Z 15012KT 25/14 A3019 RMK A01 T02480140  RH  051%=      5-min Rain = 0
KAD1 110353Z 14011KT 25/14 A3019 RMK A01 T02480140  RH  051%=      5-min Rain = 0
KAD1 110354Z 15011KT 25/14 A3019 RMK A01 T02480139  RH  051%=      5-min Rain = 0
KAD1 110355Z 15011KT 25/14 A3019 RMK A01 T02470139  RH  051%=      5-min Rain = 0
KAD1 110356Z 15012KT 25/14 A3019 RMK A01 T02470140  RH  051%=      5-min Rain = 0
KAD1 110357Z 16012KT 25/14 A3019 RMK A01 T02460139  RH  051%=      5-min Rain = 0
KAD1 110358Z 16012KT 25/14 A3019 RMK A01 T02450140  RH  052%=      5-min Rain = 0
KAD1 110359Z 15013KT 24/14 A3019 RMK A01 T02440139  RH  052%=      5-min Rain = 0
KAD1 110400Z 16012KT 24/14 A3019 RMK A01 T02440139  RH  052%=      5-min Rain = 0
KAD1 110401Z 16012KT 24/14 A3019 RMK A01 T02430140  RH  052%=      5-min Rain = 0
KAD1 110402Z 16013KT 24/14 A3019 RMK A01 T02430140  RH  053%=      5-min Rain = 0
KAD1 110403Z 16014KT 24/14 A3019 RMK A01 T02420140  RH  053%=      5-min Rain = 0
KAD1 110404Z 16014KT 24/14 A3019 RMK A01 T02420140  RH  053%=      5-min Rain = 0
KAD1 110405Z 16013KT 24/14 A3019 RMK A01 T02420141  RH  053%=      5-min Rain = 0
KAD1 110406Z 16014KT 24/14 A3019 RMK A01 T02420142  RH  053%=      5-min Rain = 0
KAD1 110407Z 16013KT 24/14 A3019 RMK A01 T02420142  RH  053%=      5-min Rain = 0
KAD1 110408Z 15014KT 24/14 A3019 RMK A01 T02420143  RH  054%=      5-min Rain = 0
KAD1 110409Z 16015KT 24/14 A3019 RMK A01 T02420142  RH  054%=      5-min Rain = 0
KAD1 110410Z 16013KT 24/14 A3019 RMK A01 T02420143  RH  054%=      5-min Rain = 0
KAD1 110411Z 16014KT 24/14 A3019 RMK A01 T02430143  RH  054%=      5-min Rain = 0
KAD1 110412Z 16016KT 24/14 A3019 RMK A01 T02420143  RH  054%=      5-min Rain = 0
KAD1 110413Z 15014KT 24/14 A3019 RMK A01 T02430143  RH  054%=      5-min Rain = 0
KAD1 110414Z 16013KT 24/14 A3019 RMK A01 T02430143  RH  054%=      5-min Rain = 0
KAD1 110415Z 16011KT 24/14 A3019 RMK A01 T02420143  RH  054%=      5-min Rain = 0
KAD1 110416Z 15012KT 24/14 A3019 RMK A01 T02410143  RH  054%=      5-min Rain = 0
KAD1 110417Z 15013KT 24/14 A3019 RMK A01 T02400143  RH  055%=      5-min Rain = 0
KAD1 110418Z 15013KT 24/14 A3019 RMK A01 T02390143  RH  055%=      5-min Rain = 0
KAD1 110419Z 16013KT 24/14 A3019 RMK A01 T02400144  RH  055%=      5-min Rain = 0
KAD1 110420Z 15013KT 24/14 A3019 RMK A01 T02390144  RH  055%=      5-min Rain = 0
KAD1 110421Z 15014KT 24/14 A3019 RMK A01 T02380144  RH  056%=      5-min Rain = 0
KAD1 110422Z 15015KT 24/15 A3019 RMK A01 T02380145  RH  056%=      5-min Rain = 0
KAD1 110423Z 15014KT 24/14 A3019 RMK A01 T02370144  RH  056%=      5-min Rain = 0
KAD1 110424Z 16013KT 24/15 A3019 RMK A01 T02370145  RH  056%=      5-min Rain = 0
KAD1 110425Z 15013KT 24/15 A3019 RMK A01 T02360145  RH  056%=      5-min Rain = 0
KAD1 110426Z 15014KT 24/15 A3019 RMK A01 T02360145  RH  057%=      5-min Rain = 0
KAD1 110427Z 15014KT 24/15 A3019 RMK A01 T02360145  RH  057%=      5-min Rain = 0
KAD1 110428Z 16014KT 24/15 A3019 RMK A01 T02360145  RH  057%=      5-min Rain = 0
KAD1 110429Z 15013KT 24/15 A3019 RMK A01 T02350145  RH  057%=      5-min Rain = 0
KAD1 110430Z 15014KT 24/15 A3019 RMK A01 T02350145  RH  057%=      5-min Rain = 0
KAD1 110431Z 16012KT 24/15 A3019 RMK A01 T02350145  RH  057%=      5-min Rain = 0
KAD1 110432Z 16012KT 24/15 A3019 RMK A01 T02350145  RH  057%=      5-min Rain = 0
KAD1 110433Z 16013KT 23/15 A3019 RMK A01 T02340145  RH  057%=      5-min Rain = 0
KAD1 110434Z 16013KT 23/15 A3019 RMK A01 T02340145  RH  057%=      5-min Rain = 0
KAD1 110435Z 16012KT 23/15 A3019 RMK A01 T02340145  RH  057%=      5-min Rain = 0
KAD1 110436Z 16012KT 24/15 A3019 RMK A01 T02350145  RH  057%=      5-min Rain = 0
KAD1 110437Z 16012KT 24/15 A3019 RMK A01 T02350145  RH  057%=      5-min Rain = 0
KAD1 110438Z 16012KT 24/15 A3019 RMK A01 T02350145  RH  057%=      5-min Rain = 0
KAD1 110439Z 16011KT 24/15 A3019 RMK A01 T02350146  RH  057%=      5-min Rain = 0
KAD1 110440Z 16010KT 24/15 A3019 RMK A01 T02350146  RH  057%=      5-min Rain = 0
KAD1 110441Z 16010KT 23/15 A3019 RMK A01 T02340145  RH  057%=      5-min Rain = 0
KAD1 110442Z 16009KT 23/15 A3019 RMK A01 T02330145  RH  058%=      5-min Rain = 0
KAD1 110443Z 16011KT 23/15 A3019 RMK A01 T02330145  RH  058%=      5-min Rain = 0
KAD1 110444Z 16009KT 23/15 A3019 RMK A01 T02330145  RH  058%=      5-min Rain = 0
KAD1 110445Z 16010KT 23/15 A3019 RMK A01 T02330146  RH  058%=      5-min Rain = 0
KAD1 110446Z 16010KT 23/15 A3019 RMK A01 T02330145  RH  058%=      5-min Rain = 0
KAD1 110447Z 16010KT 23/15 A3019 RMK A01 T02320145  RH  058%=      5-min Rain = 0
KAD1 110448Z 16009KT 23/15 A3019 RMK A01 T02320145  RH  058%=      5-min Rain = 0
KAD1 110449Z 16010KT 23/15 A3019 RMK A01 T02310145  RH  058%=      5-min Rain = 0
KAD1 110450Z 16010KT 23/15 A3019 RMK A01 T02310145  RH  058%=      5-min Rain = 0
KAD1 110451Z 16010KT 23/15 A3019 RMK A01 T02310145  RH  058%=      5-min Rain = 0
KAD1 110452Z 16009KT 23/15 A3019 RMK A01 T02310145  RH  058%=      5-min Rain = 0
KAD1 110453Z 16010KT 23/15 A3019 RMK A01 T02300145  RH  059%=      5-min Rain = 0
KAD1 110454Z 16010KT 23/15 A3019 RMK A01 T02290145  RH  059%=      5-min Rain = 0
KAD1 110455Z 15010KT 23/15 A3019 RMK A01 T02290145  RH  059%=      5-min Rain = 0
KAD1 110456Z 15009KT 23/15 A3019 RMK A01 T02280145  RH  059%=      5-min Rain = 0
KAD1 110457Z 15010KT 23/15 A3019 RMK A01 T02270145  RH  060%=      5-min Rain = 0
KAD1 110458Z 15010KT 23/15 A3019 RMK A01 T02260145  RH  060%=      5-min Rain = 0
KAD1 110459Z 16010KT 23/15 A3019 RMK A01 T02250145  RH  061%=      5-min Rain = 0

Page generated in 0.0322 seconds.